<?xml version="1.0" encoding="UTF-8" standalone="no" ?>
<gpx xmlns="http://www.topografix.com/GPX/1/1" xmlns:xsi="http://www.w3.org/2001/XMLSchema-instance" xsi:schemaLocation="http://www.topografix.com/GPX/1/1 http://www.topografix.com/GPX/1/1/gpx.xsd" version="1.1" creator="VisuGPX - https://www.visugpx.com">
  <metadata>
    <name>Le Caylar Le Tour Du Lac Des Rives </name>
    <desc><![CDATA[Bonus la rando en vidéo :  https://youtu.be/GkCh26L5KrI]]></desc>
  </metadata>
  <wpt lat="43.86449" lon="3.31646">
    <ele>741</ele>
    <name><![CDATA[Départ ]]></name>
    <type><![CDATA[GENERIC]]></type>
  </wpt>
  <wpt lat="43.86452" lon="3.31644">
    <ele>741</ele>
    <name><![CDATA[Arrivée ]]></name>
    <type><![CDATA[GENERIC]]></type>
  </wpt>
  <trk>
    <name><![CDATA[Le Caylar Le Tour Du Lac]]></name>
    <trkseg>
      <trkpt lat="43.86449" lon="3.31646">
        <ele>741</ele>
        <time>2026-03-25T07:52:40.000Z</time>
      </trkpt>
      <trkpt lat="43.86453" lon="3.31645">
        <ele>741</ele>
        <time>2026-03-25T07:52:45.000Z</time>
      </trkpt>
      <trkpt lat="43.86453" lon="3.31649">
        <ele>741</ele>
        <time>2026-03-25T07:52:48.000Z</time>
      </trkpt>
      <trkpt lat="43.86454" lon="3.31678">
        <ele>742</ele>
        <time>2026-03-25T07:53:22.000Z</time>
      </trkpt>
      <trkpt lat="43.86444" lon="3.3169">
        <ele>743</ele>
        <time>2026-03-25T07:53:48.000Z</time>
      </trkpt>
      <trkpt lat="43.86424" lon="3.31723">
        <ele>745</ele>
        <time>2026-03-25T07:54:45.000Z</time>
      </trkpt>
      <trkpt lat="43.86383" lon="3.31815">
        <ele>747</ele>
        <time>2026-03-25T07:56:34.000Z</time>
      </trkpt>
      <trkpt lat="43.8625" lon="3.31949">
        <ele>742</ele>
        <time>2026-03-25T07:59:42.000Z</time>
      </trkpt>
      <trkpt lat="43.8625" lon="3.31949">
        <ele>742</ele>
        <time>2026-03-25T07:59:42.000Z</time>
      </trkpt>
      <trkpt lat="43.86255" lon="3.31943">
        <ele>742</ele>
        <time>2026-03-25T07:59:49.000Z</time>
      </trkpt>
      <trkpt lat="43.86289" lon="3.31912">
        <ele>744</ele>
        <time>2026-03-25T08:00:57.000Z</time>
      </trkpt>
      <trkpt lat="43.86362" lon="3.31836">
        <ele>747</ele>
        <time>2026-03-25T08:03:12.000Z</time>
      </trkpt>
      <trkpt lat="43.86347" lon="3.31812">
        <ele>745</ele>
        <time>2026-03-25T08:03:39.000Z</time>
      </trkpt>
      <trkpt lat="43.86351" lon="3.31809">
        <ele>746</ele>
        <time>2026-03-25T08:03:55.000Z</time>
      </trkpt>
      <trkpt lat="43.86351" lon="3.31809">
        <ele>746</ele>
        <time>2026-03-25T08:03:55.000Z</time>
      </trkpt>
      <trkpt lat="43.86386" lon="3.31779">
        <ele>746</ele>
        <time>2026-03-25T08:04:42.000Z</time>
      </trkpt>
      <trkpt lat="43.86376" lon="3.3176">
        <ele>745</ele>
        <time>2026-03-25T08:05:02.000Z</time>
      </trkpt>
      <trkpt lat="43.86357" lon="3.31733">
        <ele>744</ele>
        <time>2026-03-25T08:05:33.000Z</time>
      </trkpt>
      <trkpt lat="43.86333" lon="3.31698">
        <ele>743</ele>
        <time>2026-03-25T08:06:13.000Z</time>
      </trkpt>
      <trkpt lat="43.86238" lon="3.31645">
        <ele>743</ele>
        <time>2026-03-25T08:08:10.000Z</time>
      </trkpt>
      <trkpt lat="43.86242" lon="3.31599">
        <ele>742</ele>
        <time>2026-03-25T08:08:48.000Z</time>
      </trkpt>
      <trkpt lat="43.86249" lon="3.31566">
        <ele>742</ele>
        <time>2026-03-25T08:09:16.000Z</time>
      </trkpt>
      <trkpt lat="43.86247" lon="3.31532">
        <ele>741</ele>
        <time>2026-03-25T08:09:44.000Z</time>
      </trkpt>
      <trkpt lat="43.86239" lon="3.31518">
        <ele>741</ele>
        <time>2026-03-25T08:09:59.000Z</time>
      </trkpt>
      <trkpt lat="43.86206" lon="3.3149">
        <ele>740</ele>
        <time>2026-03-25T08:10:44.000Z</time>
      </trkpt>
      <trkpt lat="43.86213" lon="3.31457">
        <ele>739</ele>
        <time>2026-03-25T08:11:12.000Z</time>
      </trkpt>
      <trkpt lat="43.86214" lon="3.31415">
        <ele>737</ele>
        <time>2026-03-25T08:11:47.000Z</time>
      </trkpt>
      <trkpt lat="43.86221" lon="3.31383">
        <ele>736</ele>
        <time>2026-03-25T08:12:14.000Z</time>
      </trkpt>
      <trkpt lat="43.86222" lon="3.31365">
        <ele>736</ele>
        <time>2026-03-25T08:12:29.000Z</time>
      </trkpt>
      <trkpt lat="43.86222" lon="3.31362">
        <ele>736</ele>
        <time>2026-03-25T08:12:32.000Z</time>
      </trkpt>
      <trkpt lat="43.86217" lon="3.31348">
        <ele>736</ele>
        <time>2026-03-25T08:12:45.000Z</time>
      </trkpt>
      <trkpt lat="43.86182" lon="3.31293">
        <ele>735</ele>
        <time>2026-03-25T08:13:45.000Z</time>
      </trkpt>
      <trkpt lat="43.8615" lon="3.31273">
        <ele>736</ele>
        <time>2026-03-25T08:14:35.000Z</time>
      </trkpt>
      <trkpt lat="43.86136" lon="3.31269">
        <ele>737</ele>
        <time>2026-03-25T08:15:01.000Z</time>
      </trkpt>
      <trkpt lat="43.86129" lon="3.31261">
        <ele>737</ele>
        <time>2026-03-25T08:15:12.000Z</time>
      </trkpt>
      <trkpt lat="43.86107" lon="3.31217">
        <ele>737</ele>
        <time>2026-03-25T08:15:57.000Z</time>
      </trkpt>
      <trkpt lat="43.86077" lon="3.31138">
        <ele>739</ele>
        <time>2026-03-25T08:17:31.000Z</time>
      </trkpt>
      <trkpt lat="43.86047" lon="3.31072">
        <ele>740</ele>
        <time>2026-03-25T08:18:46.000Z</time>
      </trkpt>
      <trkpt lat="43.86028" lon="3.31059">
        <ele>740</ele>
        <time>2026-03-25T08:19:10.000Z</time>
      </trkpt>
      <trkpt lat="43.85975" lon="3.31062">
        <ele>735</ele>
        <time>2026-03-25T08:20:11.000Z</time>
      </trkpt>
      <trkpt lat="43.85961" lon="3.31058">
        <ele>734</ele>
        <time>2026-03-25T08:20:27.000Z</time>
      </trkpt>
      <trkpt lat="43.85951" lon="3.3105">
        <ele>733</ele>
        <time>2026-03-25T08:20:40.000Z</time>
      </trkpt>
      <trkpt lat="43.85951" lon="3.3105">
        <ele>733</ele>
        <time>2026-03-25T08:20:40.000Z</time>
      </trkpt>
      <trkpt lat="43.8595" lon="3.31048">
        <ele>733</ele>
        <time>2026-03-25T08:20:42.000Z</time>
      </trkpt>
      <trkpt lat="43.85947" lon="3.31027">
        <ele>734</ele>
        <time>2026-03-25T08:21:10.000Z</time>
      </trkpt>
      <trkpt lat="43.85953" lon="3.30978">
        <ele>734</ele>
        <time>2026-03-25T08:21:51.000Z</time>
      </trkpt>
      <trkpt lat="43.85963" lon="3.30962">
        <ele>734</ele>
        <time>2026-03-25T08:22:09.000Z</time>
      </trkpt>
      <trkpt lat="43.85978" lon="3.30956">
        <ele>734</ele>
        <time>2026-03-25T08:22:26.000Z</time>
      </trkpt>
      <trkpt lat="43.85978" lon="3.30962">
        <ele>736</ele>
        <time>2026-03-25T08:16:43.000Z</time>
      </trkpt>
      <trkpt lat="43.85978" lon="3.30956">
        <ele>734</ele>
        <time>2026-03-25T08:16:49.000Z</time>
      </trkpt>
      <trkpt lat="43.85979" lon="3.30955">
        <ele>734</ele>
        <time>2026-03-25T08:16:50.000Z</time>
      </trkpt>
      <trkpt lat="43.86075" lon="3.30979">
        <ele>740</ele>
        <time>2026-03-25T08:19:44.000Z</time>
      </trkpt>
      <trkpt lat="43.86075" lon="3.30978">
        <ele>740</ele>
        <time>2026-03-25T08:19:45.000Z</time>
      </trkpt>
      <trkpt lat="43.86077" lon="3.30972">
        <ele>740</ele>
        <time>2026-03-25T08:19:51.000Z</time>
      </trkpt>
      <trkpt lat="43.86071" lon="3.30892">
        <ele>741</ele>
        <time>2026-03-25T08:21:08.000Z</time>
      </trkpt>
      <trkpt lat="43.86066" lon="3.30859">
        <ele>742</ele>
        <time>2026-03-25T08:21:46.000Z</time>
      </trkpt>
      <trkpt lat="43.86039" lon="3.30759">
        <ele>744</ele>
        <time>2026-03-25T08:23:34.000Z</time>
      </trkpt>
      <trkpt lat="43.86037" lon="3.30751">
        <ele>744</ele>
        <time>2026-03-25T08:23:42.000Z</time>
      </trkpt>
      <trkpt lat="43.86015" lon="3.3072">
        <ele>744</ele>
        <time>2026-03-25T08:24:18.000Z</time>
      </trkpt>
      <trkpt lat="43.85972" lon="3.30679">
        <ele>743</ele>
        <time>2026-03-25T08:25:18.000Z</time>
      </trkpt>
      <trkpt lat="43.85912" lon="3.30647">
        <ele>741</ele>
        <time>2026-03-25T08:26:32.000Z</time>
      </trkpt>
      <trkpt lat="43.85899" lon="3.30632">
        <ele>740</ele>
        <time>2026-03-25T08:26:51.000Z</time>
      </trkpt>
      <trkpt lat="43.85871" lon="3.30577">
        <ele>741</ele>
        <time>2026-03-25T08:27:57.000Z</time>
      </trkpt>
      <trkpt lat="43.8583" lon="3.30522">
        <ele>740</ele>
        <time>2026-03-25T08:29:02.000Z</time>
      </trkpt>
      <trkpt lat="43.85811" lon="3.30503">
        <ele>739</ele>
        <time>2026-03-25T08:29:29.000Z</time>
      </trkpt>
      <trkpt lat="43.8579" lon="3.30498">
        <ele>738</ele>
        <time>2026-03-25T08:29:53.000Z</time>
      </trkpt>
      <trkpt lat="43.85785" lon="3.30488">
        <ele>737</ele>
        <time>2026-03-25T08:30:03.000Z</time>
      </trkpt>
      <trkpt lat="43.85783" lon="3.30478">
        <ele>737</ele>
        <time>2026-03-25T08:30:11.000Z</time>
      </trkpt>
      <trkpt lat="43.85766" lon="3.30373">
        <ele>737</ele>
        <time>2026-03-25T08:31:40.000Z</time>
      </trkpt>
      <trkpt lat="43.85725" lon="3.30271">
        <ele>742</ele>
        <time>2026-03-25T08:34:08.000Z</time>
      </trkpt>
      <trkpt lat="43.85704" lon="3.30229">
        <ele>745</ele>
        <time>2026-03-25T08:35:21.000Z</time>
      </trkpt>
      <trkpt lat="43.85696" lon="3.30182">
        <ele>749</ele>
        <time>2026-03-25T08:36:42.000Z</time>
      </trkpt>
      <trkpt lat="43.85672" lon="3.30108">
        <ele>752</ele>
        <time>2026-03-25T08:38:20.000Z</time>
      </trkpt>
      <trkpt lat="43.8565" lon="3.29994">
        <ele>752</ele>
        <time>2026-03-25T08:39:57.000Z</time>
      </trkpt>
      <trkpt lat="43.85627" lon="3.29954">
        <ele>748</ele>
        <time>2026-03-25T08:40:39.000Z</time>
      </trkpt>
      <trkpt lat="43.85596" lon="3.29799">
        <ele>744</ele>
        <time>2026-03-25T08:42:52.000Z</time>
      </trkpt>
      <trkpt lat="43.85556" lon="3.29662">
        <ele>742</ele>
        <time>2026-03-25T08:44:54.000Z</time>
      </trkpt>
      <trkpt lat="43.85527" lon="3.29589">
        <ele>742</ele>
        <time>2026-03-25T08:46:02.000Z</time>
      </trkpt>
      <trkpt lat="43.85488" lon="3.29522">
        <ele>741</ele>
        <time>2026-03-25T08:47:14.000Z</time>
      </trkpt>
      <trkpt lat="43.85475" lon="3.29492">
        <ele>741</ele>
        <time>2026-03-25T08:47:42.000Z</time>
      </trkpt>
      <trkpt lat="43.85466" lon="3.29462">
        <ele>741</ele>
        <time>2026-03-25T08:48:09.000Z</time>
      </trkpt>
      <trkpt lat="43.8545" lon="3.29375">
        <ele>740</ele>
        <time>2026-03-25T08:49:23.000Z</time>
      </trkpt>
      <trkpt lat="43.85434" lon="3.29319">
        <ele>739</ele>
        <time>2026-03-25T08:50:12.000Z</time>
      </trkpt>
      <trkpt lat="43.85403" lon="3.29223">
        <ele>739</ele>
        <time>2026-03-25T08:51:39.000Z</time>
      </trkpt>
      <trkpt lat="43.85377" lon="3.2916">
        <ele>739</ele>
        <time>2026-03-25T08:52:39.000Z</time>
      </trkpt>
      <trkpt lat="43.85366" lon="3.29125">
        <ele>739</ele>
        <time>2026-03-25T08:53:10.000Z</time>
      </trkpt>
      <trkpt lat="43.85333" lon="3.28948">
        <ele>740</ele>
        <time>2026-03-25T08:55:51.000Z</time>
      </trkpt>
      <trkpt lat="43.85295" lon="3.28832">
        <ele>739</ele>
        <time>2026-03-25T08:57:37.000Z</time>
      </trkpt>
      <trkpt lat="43.85254" lon="3.28734">
        <ele>738</ele>
        <time>2026-03-25T08:59:10.000Z</time>
      </trkpt>
      <trkpt lat="43.85241" lon="3.28679">
        <ele>737</ele>
        <time>2026-03-25T08:59:58.000Z</time>
      </trkpt>
      <trkpt lat="43.85237" lon="3.28669">
        <ele>737</ele>
        <time>2026-03-25T09:00:07.000Z</time>
      </trkpt>
      <trkpt lat="43.85216" lon="3.28631">
        <ele>737</ele>
        <time>2026-03-25T09:00:46.000Z</time>
      </trkpt>
      <trkpt lat="43.85164" lon="3.28559">
        <ele>742</ele>
        <time>2026-03-25T09:03:02.000Z</time>
      </trkpt>
      <trkpt lat="43.85123" lon="3.28478">
        <ele>743</ele>
        <time>2026-03-25T09:04:34.000Z</time>
      </trkpt>
      <trkpt lat="43.85055" lon="3.28298">
        <ele>742</ele>
        <time>2026-03-25T09:07:22.000Z</time>
      </trkpt>
      <trkpt lat="43.8496" lon="3.28059">
        <ele>745</ele>
        <time>2026-03-25T09:11:38.000Z</time>
      </trkpt>
      <trkpt lat="43.84953" lon="3.28049">
        <ele>745</ele>
        <time>2026-03-25T09:11:50.000Z</time>
      </trkpt>
      <trkpt lat="43.84896" lon="3.27997">
        <ele>747</ele>
        <time>2026-03-25T09:13:28.000Z</time>
      </trkpt>
      <trkpt lat="43.84782" lon="3.27819">
        <ele>745</ele>
        <time>2026-03-25T09:16:45.000Z</time>
      </trkpt>
      <trkpt lat="43.84763" lon="3.27783">
        <ele>745</ele>
        <time>2026-03-25T09:17:21.000Z</time>
      </trkpt>
      <trkpt lat="43.84725" lon="3.27629">
        <ele>745</ele>
        <time>2026-03-25T09:19:36.000Z</time>
      </trkpt>
      <trkpt lat="43.84699" lon="3.27577">
        <ele>745</ele>
        <time>2026-03-25T09:20:28.000Z</time>
      </trkpt>
      <trkpt lat="43.84685" lon="3.27541">
        <ele>746</ele>
        <time>2026-03-25T09:21:12.000Z</time>
      </trkpt>
      <trkpt lat="43.84657" lon="3.27502">
        <ele>747</ele>
        <time>2026-03-25T09:22:08.000Z</time>
      </trkpt>
      <trkpt lat="43.8463" lon="3.27449">
        <ele>747</ele>
        <time>2026-03-25T09:23:02.000Z</time>
      </trkpt>
      <trkpt lat="43.84594" lon="3.27388">
        <ele>748</ele>
        <time>2026-03-25T09:24:17.000Z</time>
      </trkpt>
      <trkpt lat="43.84554" lon="3.27302">
        <ele>749</ele>
        <time>2026-03-25T09:25:52.000Z</time>
      </trkpt>
      <trkpt lat="43.84503" lon="3.27268">
        <ele>750</ele>
        <time>2026-03-25T09:27:07.000Z</time>
      </trkpt>
      <trkpt lat="43.84502" lon="3.27275">
        <ele>749</ele>
        <time>2026-03-25T09:27:13.000Z</time>
      </trkpt>
      <trkpt lat="43.84503" lon="3.27268">
        <ele>750</ele>
        <time>2026-03-25T09:27:29.000Z</time>
      </trkpt>
      <trkpt lat="43.84501" lon="3.27218">
        <ele>751</ele>
        <time>2026-03-25T09:28:21.000Z</time>
      </trkpt>
      <trkpt lat="43.84477" lon="3.27132">
        <ele>752</ele>
        <time>2026-03-25T09:29:48.000Z</time>
      </trkpt>
      <trkpt lat="43.84471" lon="3.27099">
        <ele>752</ele>
        <time>2026-03-25T09:30:15.000Z</time>
      </trkpt>
      <trkpt lat="43.84473" lon="3.27063">
        <ele>753</ele>
        <time>2026-03-25T09:30:56.000Z</time>
      </trkpt>
      <trkpt lat="43.84485" lon="3.26975">
        <ele>754</ele>
        <time>2026-03-25T09:32:20.000Z</time>
      </trkpt>
      <trkpt lat="43.84482" lon="3.26892">
        <ele>754</ele>
        <time>2026-03-25T09:33:28.000Z</time>
      </trkpt>
      <trkpt lat="43.84469" lon="3.26812">
        <ele>755</ele>
        <time>2026-03-25T09:34:46.000Z</time>
      </trkpt>
      <trkpt lat="43.84462" lon="3.26784">
        <ele>755</ele>
        <time>2026-03-25T09:35:10.000Z</time>
      </trkpt>
      <trkpt lat="43.84445" lon="3.2676">
        <ele>755</ele>
        <time>2026-03-25T09:35:38.000Z</time>
      </trkpt>
      <trkpt lat="43.84454" lon="3.26751">
        <ele>756</ele>
        <time>2026-03-25T09:36:01.000Z</time>
      </trkpt>
      <trkpt lat="43.84457" lon="3.26749">
        <ele>756</ele>
        <time>2026-03-25T09:36:05.000Z</time>
      </trkpt>
      <trkpt lat="43.84496" lon="3.26723">
        <ele>756</ele>
        <time>2026-03-25T09:36:55.000Z</time>
      </trkpt>
      <trkpt lat="43.84549" lon="3.26695">
        <ele>757</ele>
        <time>2026-03-25T09:38:10.000Z</time>
      </trkpt>
      <trkpt lat="43.84637" lon="3.26626">
        <ele>756</ele>
        <time>2026-03-25T09:40:05.000Z</time>
      </trkpt>
      <trkpt lat="43.84663" lon="3.26623">
        <ele>754</ele>
        <time>2026-03-25T09:40:36.000Z</time>
      </trkpt>
      <trkpt lat="43.84696" lon="3.26628">
        <ele>753</ele>
        <time>2026-03-25T09:41:13.000Z</time>
      </trkpt>
      <trkpt lat="43.84715" lon="3.26624">
        <ele>754</ele>
        <time>2026-03-25T09:41:46.000Z</time>
      </trkpt>
      <trkpt lat="43.84769" lon="3.26581">
        <ele>750</ele>
        <time>2026-03-25T09:42:57.000Z</time>
      </trkpt>
      <trkpt lat="43.84799" lon="3.26563">
        <ele>745</ele>
        <time>2026-03-25T09:43:34.000Z</time>
      </trkpt>
      <trkpt lat="43.84833" lon="3.26533">
        <ele>742</ele>
        <time>2026-03-25T09:44:20.000Z</time>
      </trkpt>
      <trkpt lat="43.84896" lon="3.26516">
        <ele>739</ele>
        <time>2026-03-25T09:45:34.000Z</time>
      </trkpt>
      <trkpt lat="43.84943" lon="3.2649">
        <ele>738</ele>
        <time>2026-03-25T09:46:32.000Z</time>
      </trkpt>
      <trkpt lat="43.84959" lon="3.26477">
        <ele>738</ele>
        <time>2026-03-25T09:46:53.000Z</time>
      </trkpt>
      <trkpt lat="43.84976" lon="3.26445">
        <ele>740</ele>
        <time>2026-03-25T09:47:47.000Z</time>
      </trkpt>
      <trkpt lat="43.84986" lon="3.26435">
        <ele>741</ele>
        <time>2026-03-25T09:48:11.000Z</time>
      </trkpt>
      <trkpt lat="43.85029" lon="3.26417">
        <ele>741</ele>
        <time>2026-03-25T09:49:03.000Z</time>
      </trkpt>
      <trkpt lat="43.85089" lon="3.26399">
        <ele>739</ele>
        <time>2026-03-25T09:50:13.000Z</time>
      </trkpt>
      <trkpt lat="43.85104" lon="3.26389">
        <ele>738</ele>
        <time>2026-03-25T09:50:31.000Z</time>
      </trkpt>
      <trkpt lat="43.85145" lon="3.26349">
        <ele>739</ele>
        <time>2026-03-25T09:51:39.000Z</time>
      </trkpt>
      <trkpt lat="43.85194" lon="3.26333">
        <ele>738</ele>
        <time>2026-03-25T09:52:37.000Z</time>
      </trkpt>
      <trkpt lat="43.85231" lon="3.26314">
        <ele>738</ele>
        <time>2026-03-25T09:53:22.000Z</time>
      </trkpt>
      <trkpt lat="43.85339" lon="3.26229">
        <ele>737</ele>
        <time>2026-03-25T09:55:45.000Z</time>
      </trkpt>
      <trkpt lat="43.85372" lon="3.2621">
        <ele>736</ele>
        <time>2026-03-25T09:56:26.000Z</time>
      </trkpt>
      <trkpt lat="43.8541" lon="3.26194">
        <ele>736</ele>
        <time>2026-03-25T09:57:11.000Z</time>
      </trkpt>
      <trkpt lat="43.85425" lon="3.2617">
        <ele>737</ele>
        <time>2026-03-25T09:57:48.000Z</time>
      </trkpt>
      <trkpt lat="43.85425" lon="3.2617">
        <ele>737</ele>
        <time>2026-03-25T09:57:48.000Z</time>
      </trkpt>
      <trkpt lat="43.85434" lon="3.26142">
        <ele>736</ele>
        <time>2026-03-25T09:58:13.000Z</time>
      </trkpt>
      <trkpt lat="43.85484" lon="3.26069">
        <ele>737</ele>
        <time>2026-03-25T09:59:47.000Z</time>
      </trkpt>
      <trkpt lat="43.85492" lon="3.26043">
        <ele>739</ele>
        <time>2026-03-25T10:00:31.000Z</time>
      </trkpt>
      <trkpt lat="43.85499" lon="3.25998">
        <ele>738</ele>
        <time>2026-03-25T10:01:09.000Z</time>
      </trkpt>
      <trkpt lat="43.85513" lon="3.25958">
        <ele>737</ele>
        <time>2026-03-25T10:01:46.000Z</time>
      </trkpt>
      <trkpt lat="43.85524" lon="3.25938">
        <ele>735</ele>
        <time>2026-03-25T10:02:07.000Z</time>
      </trkpt>
      <trkpt lat="43.85542" lon="3.25915">
        <ele>735</ele>
        <time>2026-03-25T10:02:34.000Z</time>
      </trkpt>
      <trkpt lat="43.85572" lon="3.25864">
        <ele>735</ele>
        <time>2026-03-25T10:03:29.000Z</time>
      </trkpt>
      <trkpt lat="43.85604" lon="3.25825">
        <ele>734</ele>
        <time>2026-03-25T10:04:18.000Z</time>
      </trkpt>
      <trkpt lat="43.85639" lon="3.25771">
        <ele>736</ele>
        <time>2026-03-25T10:05:38.000Z</time>
      </trkpt>
      <trkpt lat="43.85669" lon="3.25735">
        <ele>736</ele>
        <time>2026-03-25T10:06:23.000Z</time>
      </trkpt>
      <trkpt lat="43.85687" lon="3.2572">
        <ele>737</ele>
        <time>2026-03-25T10:06:58.000Z</time>
      </trkpt>
      <trkpt lat="43.8572" lon="3.25671">
        <ele>738</ele>
        <time>2026-03-25T10:08:03.000Z</time>
      </trkpt>
      <trkpt lat="43.85742" lon="3.25645">
        <ele>738</ele>
        <time>2026-03-25T10:08:36.000Z</time>
      </trkpt>
      <trkpt lat="43.85742" lon="3.25645">
        <ele>738</ele>
        <time>2026-03-25T10:08:36.000Z</time>
      </trkpt>
      <trkpt lat="43.85744" lon="3.25643">
        <ele>738</ele>
        <time>2026-03-25T10:08:39.000Z</time>
      </trkpt>
      <trkpt lat="43.85765" lon="3.25623">
        <ele>739</ele>
        <time>2026-03-25T10:09:18.000Z</time>
      </trkpt>
      <trkpt lat="43.85785" lon="3.25598">
        <ele>739</ele>
        <time>2026-03-25T10:09:49.000Z</time>
      </trkpt>
      <trkpt lat="43.85871" lon="3.25567">
        <ele>738</ele>
        <time>2026-03-25T10:11:31.000Z</time>
      </trkpt>
      <trkpt lat="43.85896" lon="3.25533">
        <ele>738</ele>
        <time>2026-03-25T10:12:11.000Z</time>
      </trkpt>
      <trkpt lat="43.85908" lon="3.25511">
        <ele>738</ele>
        <time>2026-03-25T10:12:33.000Z</time>
      </trkpt>
      <trkpt lat="43.85921" lon="3.25499">
        <ele>739</ele>
        <time>2026-03-25T10:13:02.000Z</time>
      </trkpt>
      <trkpt lat="43.85952" lon="3.25493">
        <ele>740</ele>
        <time>2026-03-25T10:13:49.000Z</time>
      </trkpt>
      <trkpt lat="43.85969" lon="3.25478">
        <ele>740</ele>
        <time>2026-03-25T10:14:12.000Z</time>
      </trkpt>
      <trkpt lat="43.86017" lon="3.25452">
        <ele>743</ele>
        <time>2026-03-25T10:15:42.000Z</time>
      </trkpt>
      <trkpt lat="43.86042" lon="3.25431">
        <ele>742</ele>
        <time>2026-03-25T10:16:15.000Z</time>
      </trkpt>
      <trkpt lat="43.8605" lon="3.25442">
        <ele>743</ele>
        <time>2026-03-25T09:41:21.000Z</time>
      </trkpt>
      <trkpt lat="43.86042" lon="3.25431">
        <ele>742</ele>
        <time>2026-03-25T09:41:34.000Z</time>
      </trkpt>
      <trkpt lat="43.86046" lon="3.25424">
        <ele>742</ele>
        <time>2026-03-25T09:41:42.000Z</time>
      </trkpt>
      <trkpt lat="43.86052" lon="3.25408">
        <ele>742</ele>
        <time>2026-03-25T09:41:57.000Z</time>
      </trkpt>
      <trkpt lat="43.86073" lon="3.2537">
        <ele>743</ele>
        <time>2026-03-25T09:42:47.000Z</time>
      </trkpt>
      <trkpt lat="43.86114" lon="3.25271">
        <ele>742</ele>
        <time>2026-03-25T09:44:21.000Z</time>
      </trkpt>
      <trkpt lat="43.86147" lon="3.25244">
        <ele>745</ele>
        <time>2026-03-25T09:45:36.000Z</time>
      </trkpt>
      <trkpt lat="43.86167" lon="3.25221">
        <ele>745</ele>
        <time>2026-03-25T09:46:06.000Z</time>
      </trkpt>
      <trkpt lat="43.8617" lon="3.25206">
        <ele>745</ele>
        <time>2026-03-25T09:46:19.000Z</time>
      </trkpt>
      <trkpt lat="43.86171" lon="3.25173">
        <ele>745</ele>
        <time>2026-03-25T09:46:46.000Z</time>
      </trkpt>
      <trkpt lat="43.86184" lon="3.25103">
        <ele>749</ele>
        <time>2026-03-25T09:48:27.000Z</time>
      </trkpt>
      <trkpt lat="43.86199" lon="3.25087">
        <ele>749</ele>
        <time>2026-03-25T09:48:49.000Z</time>
      </trkpt>
      <trkpt lat="43.86215" lon="3.25076">
        <ele>750</ele>
        <time>2026-03-25T09:49:20.000Z</time>
      </trkpt>
      <trkpt lat="43.86228" lon="3.2506">
        <ele>750</ele>
        <time>2026-03-25T09:49:40.000Z</time>
      </trkpt>
      <trkpt lat="43.86236" lon="3.24988">
        <ele>752</ele>
        <time>2026-03-25T09:51:00.000Z</time>
      </trkpt>
      <trkpt lat="43.86241" lon="3.2498">
        <ele>752</ele>
        <time>2026-03-25T09:51:09.000Z</time>
      </trkpt>
      <trkpt lat="43.86255" lon="3.2497">
        <ele>753</ele>
        <time>2026-03-25T09:51:37.000Z</time>
      </trkpt>
      <trkpt lat="43.86293" lon="3.24911">
        <ele>756</ele>
        <time>2026-03-25T09:53:14.000Z</time>
      </trkpt>
      <trkpt lat="43.8632" lon="3.24889">
        <ele>756</ele>
        <time>2026-03-25T09:53:49.000Z</time>
      </trkpt>
      <trkpt lat="43.86334" lon="3.24868">
        <ele>756</ele>
        <time>2026-03-25T09:54:12.000Z</time>
      </trkpt>
      <trkpt lat="43.8634" lon="3.24841">
        <ele>758</ele>
        <time>2026-03-25T09:54:56.000Z</time>
      </trkpt>
      <trkpt lat="43.86342" lon="3.24818">
        <ele>758</ele>
        <time>2026-03-25T09:55:15.000Z</time>
      </trkpt>
      <trkpt lat="43.86336" lon="3.24736">
        <ele>759</ele>
        <time>2026-03-25T09:56:34.000Z</time>
      </trkpt>
      <trkpt lat="43.86341" lon="3.24726">
        <ele>759</ele>
        <time>2026-03-25T09:56:43.000Z</time>
      </trkpt>
      <trkpt lat="43.86348" lon="3.24716">
        <ele>759</ele>
        <time>2026-03-25T09:56:55.000Z</time>
      </trkpt>
      <trkpt lat="43.8636" lon="3.24708">
        <ele>760</ele>
        <time>2026-03-25T09:57:20.000Z</time>
      </trkpt>
      <trkpt lat="43.86445" lon="3.24675">
        <ele>758</ele>
        <time>2026-03-25T09:59:01.000Z</time>
      </trkpt>
      <trkpt lat="43.8645" lon="3.24667">
        <ele>758</ele>
        <time>2026-03-25T09:59:10.000Z</time>
      </trkpt>
      <trkpt lat="43.86456" lon="3.24646">
        <ele>760</ele>
        <time>2026-03-25T09:59:49.000Z</time>
      </trkpt>
      <trkpt lat="43.86473" lon="3.24639">
        <ele>761</ele>
        <time>2026-03-25T10:00:20.000Z</time>
      </trkpt>
      <trkpt lat="43.86528" lon="3.24632">
        <ele>759</ele>
        <time>2026-03-25T10:01:23.000Z</time>
      </trkpt>
      <trkpt lat="43.86556" lon="3.24642">
        <ele>760</ele>
        <time>2026-03-25T10:02:06.000Z</time>
      </trkpt>
      <trkpt lat="43.86579" lon="3.24633">
        <ele>760</ele>
        <time>2026-03-25T10:02:34.000Z</time>
      </trkpt>
      <trkpt lat="43.86659" lon="3.24562">
        <ele>759</ele>
        <time>2026-03-25T10:04:23.000Z</time>
      </trkpt>
      <trkpt lat="43.8667" lon="3.24529">
        <ele>758</ele>
        <time>2026-03-25T10:04:53.000Z</time>
      </trkpt>
      <trkpt lat="43.86683" lon="3.24505">
        <ele>757</ele>
        <time>2026-03-25T10:05:17.000Z</time>
      </trkpt>
      <trkpt lat="43.86684" lon="3.24503">
        <ele>757</ele>
        <time>2026-03-25T10:05:19.000Z</time>
      </trkpt>
      <trkpt lat="43.86704" lon="3.24417">
        <ele>758</ele>
        <time>2026-03-25T10:06:44.000Z</time>
      </trkpt>
      <trkpt lat="43.8673" lon="3.24363">
        <ele>759</ele>
        <time>2026-03-25T10:07:48.000Z</time>
      </trkpt>
      <trkpt lat="43.86729" lon="3.24344">
        <ele>759</ele>
        <time>2026-03-25T10:08:04.000Z</time>
      </trkpt>
      <trkpt lat="43.86715" lon="3.24303">
        <ele>761</ele>
        <time>2026-03-25T10:09:02.000Z</time>
      </trkpt>
      <trkpt lat="43.86709" lon="3.24293">
        <ele>762</ele>
        <time>2026-03-25T10:09:23.000Z</time>
      </trkpt>
      <trkpt lat="43.86692" lon="3.24279">
        <ele>764</ele>
        <time>2026-03-25T10:10:07.000Z</time>
      </trkpt>
      <trkpt lat="43.86689" lon="3.24244">
        <ele>765</ele>
        <time>2026-03-25T10:10:47.000Z</time>
      </trkpt>
      <trkpt lat="43.86688" lon="3.24228">
        <ele>763</ele>
        <time>2026-03-25T10:11:01.000Z</time>
      </trkpt>
      <trkpt lat="43.86687" lon="3.2415">
        <ele>761</ele>
        <time>2026-03-25T10:12:05.000Z</time>
      </trkpt>
      <trkpt lat="43.86691" lon="3.2412">
        <ele>760</ele>
        <time>2026-03-25T10:12:30.000Z</time>
      </trkpt>
      <trkpt lat="43.86668" lon="3.2409">
        <ele>760</ele>
        <time>2026-03-25T10:13:05.000Z</time>
      </trkpt>
      <trkpt lat="43.86655" lon="3.24042">
        <ele>761</ele>
        <time>2026-03-25T10:13:58.000Z</time>
      </trkpt>
      <trkpt lat="43.86625" lon="3.24029">
        <ele>763</ele>
        <time>2026-03-25T10:14:55.000Z</time>
      </trkpt>
      <trkpt lat="43.86614" lon="3.24017">
        <ele>763</ele>
        <time>2026-03-25T10:15:10.000Z</time>
      </trkpt>
      <trkpt lat="43.86612" lon="3.24003">
        <ele>763</ele>
        <time>2026-03-25T10:15:22.000Z</time>
      </trkpt>
      <trkpt lat="43.86617" lon="3.23994">
        <ele>763</ele>
        <time>2026-03-25T10:15:31.000Z</time>
      </trkpt>
      <trkpt lat="43.86617" lon="3.23994">
        <ele>763</ele>
        <time>2026-03-25T10:15:31.000Z</time>
      </trkpt>
      <trkpt lat="43.86636" lon="3.23969">
        <ele>766</ele>
        <time>2026-03-25T10:16:32.000Z</time>
      </trkpt>
      <trkpt lat="43.86658" lon="3.23961">
        <ele>766</ele>
        <time>2026-03-25T10:16:58.000Z</time>
      </trkpt>
      <trkpt lat="43.86671" lon="3.23944">
        <ele>767</ele>
        <time>2026-03-25T10:17:28.000Z</time>
      </trkpt>
      <trkpt lat="43.8668" lon="3.23936">
        <ele>766</ele>
        <time>2026-03-25T10:17:41.000Z</time>
      </trkpt>
      <trkpt lat="43.8672" lon="3.23917">
        <ele>767</ele>
        <time>2026-03-25T10:18:40.000Z</time>
      </trkpt>
      <trkpt lat="43.86738" lon="3.23891">
        <ele>769</ele>
        <time>2026-03-25T10:19:30.000Z</time>
      </trkpt>
      <trkpt lat="43.8676" lon="3.23879">
        <ele>771</ele>
        <time>2026-03-25T10:20:18.000Z</time>
      </trkpt>
      <trkpt lat="43.86767" lon="3.23869">
        <ele>772</ele>
        <time>2026-03-25T10:20:40.000Z</time>
      </trkpt>
      <trkpt lat="43.8676" lon="3.23807">
        <ele>774</ele>
        <time>2026-03-25T10:21:52.000Z</time>
      </trkpt>
      <trkpt lat="43.86771" lon="3.23765">
        <ele>774</ele>
        <time>2026-03-25T10:22:28.000Z</time>
      </trkpt>
      <trkpt lat="43.86792" lon="3.23745">
        <ele>775</ele>
        <time>2026-03-25T10:23:08.000Z</time>
      </trkpt>
      <trkpt lat="43.86811" lon="3.23703">
        <ele>776</ele>
        <time>2026-03-25T10:23:59.000Z</time>
      </trkpt>
      <trkpt lat="43.86827" lon="3.2369">
        <ele>776</ele>
        <time>2026-03-25T10:24:20.000Z</time>
      </trkpt>
      <trkpt lat="43.86846" lon="3.23666">
        <ele>777</ele>
        <time>2026-03-25T10:25:01.000Z</time>
      </trkpt>
      <trkpt lat="43.86876" lon="3.23644">
        <ele>780</ele>
        <time>2026-03-25T10:26:10.000Z</time>
      </trkpt>
      <trkpt lat="43.86903" lon="3.23598">
        <ele>782</ele>
        <time>2026-03-25T10:27:20.000Z</time>
      </trkpt>
      <trkpt lat="43.86933" lon="3.23574">
        <ele>785</ele>
        <time>2026-03-25T10:28:31.000Z</time>
      </trkpt>
      <trkpt lat="43.86942" lon="3.23559">
        <ele>785</ele>
        <time>2026-03-25T10:28:47.000Z</time>
      </trkpt>
      <trkpt lat="43.86951" lon="3.23553">
        <ele>785</ele>
        <time>2026-03-25T10:28:59.000Z</time>
      </trkpt>
      <trkpt lat="43.86948" lon="3.23548">
        <ele>785</ele>
        <time>2026-03-25T10:29:05.000Z</time>
      </trkpt>
      <trkpt lat="43.8695" lon="3.23546">
        <ele>785</ele>
        <time>2026-03-25T10:12:39.000Z</time>
      </trkpt>
      <trkpt lat="43.86971" lon="3.2353">
        <ele>783</ele>
        <time>2026-03-25T10:13:00.000Z</time>
      </trkpt>
      <trkpt lat="43.86993" lon="3.23521">
        <ele>781</ele>
        <time>2026-03-25T10:13:18.000Z</time>
      </trkpt>
      <trkpt lat="43.87018" lon="3.23521">
        <ele>781</ele>
        <time>2026-03-25T10:13:39.000Z</time>
      </trkpt>
      <trkpt lat="43.87042" lon="3.2352">
        <ele>782</ele>
        <time>2026-03-25T10:13:57.000Z</time>
      </trkpt>
      <trkpt lat="43.87068" lon="3.2352">
        <ele>782</ele>
        <time>2026-03-25T10:14:18.000Z</time>
      </trkpt>
      <trkpt lat="43.87091" lon="3.23516">
        <ele>781</ele>
        <time>2026-03-25T10:14:39.000Z</time>
      </trkpt>
      <trkpt lat="43.87115" lon="3.23515">
        <ele>780</ele>
        <time>2026-03-25T10:15:00.000Z</time>
      </trkpt>
      <trkpt lat="43.87138" lon="3.23508">
        <ele>779</ele>
        <time>2026-03-25T10:15:15.000Z</time>
      </trkpt>
      <trkpt lat="43.87159" lon="3.23497">
        <ele>779</ele>
        <time>2026-03-25T10:15:33.000Z</time>
      </trkpt>
      <trkpt lat="43.87179" lon="3.23483">
        <ele>778</ele>
        <time>2026-03-25T10:15:51.000Z</time>
      </trkpt>
      <trkpt lat="43.872" lon="3.23466">
        <ele>777</ele>
        <time>2026-03-25T10:16:09.000Z</time>
      </trkpt>
      <trkpt lat="43.87218" lon="3.23447">
        <ele>777</ele>
        <time>2026-03-25T10:17:39.000Z</time>
      </trkpt>
      <trkpt lat="43.87238" lon="3.23426">
        <ele>776</ele>
        <time>2026-03-25T10:17:54.000Z</time>
      </trkpt>
      <trkpt lat="43.87251" lon="3.23399">
        <ele>776</ele>
        <time>2026-03-25T10:18:09.000Z</time>
      </trkpt>
      <trkpt lat="43.87256" lon="3.23366">
        <ele>773</ele>
        <time>2026-03-25T10:18:30.000Z</time>
      </trkpt>
      <trkpt lat="43.87258" lon="3.23335">
        <ele>772</ele>
        <time>2026-03-25T10:18:45.000Z</time>
      </trkpt>
      <trkpt lat="43.87264" lon="3.23307">
        <ele>770</ele>
        <time>2026-03-25T10:19:03.000Z</time>
      </trkpt>
      <trkpt lat="43.87264" lon="3.23307">
        <ele>770</ele>
        <time>2026-03-25T10:19:03.000Z</time>
      </trkpt>
      <trkpt lat="43.87267" lon="3.23304">
        <ele>769</ele>
        <time>2026-03-25T10:19:08.000Z</time>
      </trkpt>
      <trkpt lat="43.87302" lon="3.2329">
        <ele>768</ele>
        <time>2026-03-25T10:19:50.000Z</time>
      </trkpt>
      <trkpt lat="43.87329" lon="3.23292">
        <ele>767</ele>
        <time>2026-03-25T10:20:20.000Z</time>
      </trkpt>
      <trkpt lat="43.87367" lon="3.23274">
        <ele>765</ele>
        <time>2026-03-25T10:21:06.000Z</time>
      </trkpt>
      <trkpt lat="43.87408" lon="3.23222">
        <ele>765</ele>
        <time>2026-03-25T10:22:10.000Z</time>
      </trkpt>
      <trkpt lat="43.87418" lon="3.23214">
        <ele>764</ele>
        <time>2026-03-25T10:22:24.000Z</time>
      </trkpt>
      <trkpt lat="43.87432" lon="3.23209">
        <ele>763</ele>
        <time>2026-03-25T10:22:40.000Z</time>
      </trkpt>
      <trkpt lat="43.87449" lon="3.23213">
        <ele>763</ele>
        <time>2026-03-25T10:23:00.000Z</time>
      </trkpt>
      <trkpt lat="43.87461" lon="3.2321">
        <ele>763</ele>
        <time>2026-03-25T10:23:13.000Z</time>
      </trkpt>
      <trkpt lat="43.87471" lon="3.23194">
        <ele>763</ele>
        <time>2026-03-25T10:23:31.000Z</time>
      </trkpt>
      <trkpt lat="43.8748" lon="3.23161">
        <ele>761</ele>
        <time>2026-03-25T10:24:00.000Z</time>
      </trkpt>
      <trkpt lat="43.87495" lon="3.23121">
        <ele>762</ele>
        <time>2026-03-25T10:24:47.000Z</time>
      </trkpt>
      <trkpt lat="43.87508" lon="3.23107">
        <ele>762</ele>
        <time>2026-03-25T10:25:06.000Z</time>
      </trkpt>
      <trkpt lat="43.87566" lon="3.23067">
        <ele>757</ele>
        <time>2026-03-25T10:26:21.000Z</time>
      </trkpt>
      <trkpt lat="43.87615" lon="3.23003">
        <ele>754</ele>
        <time>2026-03-25T10:27:39.000Z</time>
      </trkpt>
      <trkpt lat="43.87647" lon="3.2298">
        <ele>755</ele>
        <time>2026-03-25T10:28:30.000Z</time>
      </trkpt>
      <trkpt lat="43.8772" lon="3.2294">
        <ele>757</ele>
        <time>2026-03-25T10:30:20.000Z</time>
      </trkpt>
      <trkpt lat="43.87727" lon="3.22933">
        <ele>757</ele>
        <time>2026-03-25T10:30:30.000Z</time>
      </trkpt>
      <trkpt lat="43.87733" lon="3.2292">
        <ele>757</ele>
        <time>2026-03-25T10:30:43.000Z</time>
      </trkpt>
      <trkpt lat="43.87733" lon="3.2292">
        <ele>757</ele>
        <time>2026-03-25T10:30:43.000Z</time>
      </trkpt>
      <trkpt lat="43.87749" lon="3.2294">
        <ele>756</ele>
        <time>2026-03-25T10:31:08.000Z</time>
      </trkpt>
      <trkpt lat="43.87851" lon="3.2306">
        <ele>750</ele>
        <time>2026-03-25T10:33:41.000Z</time>
      </trkpt>
      <trkpt lat="43.87842" lon="3.23094">
        <ele>750</ele>
        <time>2026-03-25T10:34:11.000Z</time>
      </trkpt>
      <trkpt lat="43.87844" lon="3.23104">
        <ele>751</ele>
        <time>2026-03-25T10:34:30.000Z</time>
      </trkpt>
      <trkpt lat="43.87851" lon="3.23115">
        <ele>750</ele>
        <time>2026-03-25T10:34:43.000Z</time>
      </trkpt>
      <trkpt lat="43.87864" lon="3.2316">
        <ele>744</ele>
        <time>2026-03-25T10:35:22.000Z</time>
      </trkpt>
      <trkpt lat="43.87875" lon="3.23178">
        <ele>746</ele>
        <time>2026-03-25T10:36:02.000Z</time>
      </trkpt>
      <trkpt lat="43.87883" lon="3.23211">
        <ele>747</ele>
        <time>2026-03-25T10:36:41.000Z</time>
      </trkpt>
      <trkpt lat="43.87884" lon="3.23226">
        <ele>747</ele>
        <time>2026-03-25T10:36:54.000Z</time>
      </trkpt>
      <trkpt lat="43.8789" lon="3.23241">
        <ele>747</ele>
        <time>2026-03-25T10:37:08.000Z</time>
      </trkpt>
      <trkpt lat="43.87888" lon="3.23243">
        <ele>747</ele>
        <time>2026-03-25T10:31:03.000Z</time>
      </trkpt>
      <trkpt lat="43.87912" lon="3.23253">
        <ele>747</ele>
        <time>2026-03-25T10:31:24.000Z</time>
      </trkpt>
      <trkpt lat="43.87934" lon="3.23262">
        <ele>749</ele>
        <time>2026-03-25T10:31:39.000Z</time>
      </trkpt>
      <trkpt lat="43.87957" lon="3.23273">
        <ele>749</ele>
        <time>2026-03-25T10:32:03.000Z</time>
      </trkpt>
      <trkpt lat="43.87981" lon="3.23287">
        <ele>753</ele>
        <time>2026-03-25T10:32:24.000Z</time>
      </trkpt>
      <trkpt lat="43.88003" lon="3.23307">
        <ele>756</ele>
        <time>2026-03-25T10:32:45.000Z</time>
      </trkpt>
      <trkpt lat="43.88023" lon="3.23321">
        <ele>761</ele>
        <time>2026-03-25T10:33:06.000Z</time>
      </trkpt>
      <trkpt lat="43.88046" lon="3.23327">
        <ele>765</ele>
        <time>2026-03-25T10:33:33.000Z</time>
      </trkpt>
      <trkpt lat="43.88067" lon="3.2334">
        <ele>766</ele>
        <time>2026-03-25T10:33:51.000Z</time>
      </trkpt>
      <trkpt lat="43.88084" lon="3.23364">
        <ele>770</ele>
        <time>2026-03-25T10:34:12.000Z</time>
      </trkpt>
      <trkpt lat="43.88102" lon="3.23387">
        <ele>774</ele>
        <time>2026-03-25T10:34:36.000Z</time>
      </trkpt>
      <trkpt lat="43.88121" lon="3.23406">
        <ele>776</ele>
        <time>2026-03-25T10:35:15.000Z</time>
      </trkpt>
      <trkpt lat="43.8814" lon="3.23427">
        <ele>776</ele>
        <time>2026-03-25T10:35:42.000Z</time>
      </trkpt>
      <trkpt lat="43.88159" lon="3.23451">
        <ele>775</ele>
        <time>2026-03-25T10:36:00.000Z</time>
      </trkpt>
      <trkpt lat="43.88179" lon="3.23471">
        <ele>777</ele>
        <time>2026-03-25T10:36:18.000Z</time>
      </trkpt>
      <trkpt lat="43.88199" lon="3.2349">
        <ele>779</ele>
        <time>2026-03-25T10:36:42.000Z</time>
      </trkpt>
      <trkpt lat="43.88219" lon="3.23507">
        <ele>781</ele>
        <time>2026-03-25T10:37:03.000Z</time>
      </trkpt>
      <trkpt lat="43.88242" lon="3.23504">
        <ele>785</ele>
        <time>2026-03-25T10:37:33.000Z</time>
      </trkpt>
      <trkpt lat="43.88266" lon="3.235">
        <ele>788</ele>
        <time>2026-03-25T10:38:00.000Z</time>
      </trkpt>
      <trkpt lat="43.88288" lon="3.23506">
        <ele>791</ele>
        <time>2026-03-25T10:38:27.000Z</time>
      </trkpt>
      <trkpt lat="43.88292" lon="3.23505">
        <ele>789</ele>
        <time>2026-03-25T10:38:32.000Z</time>
      </trkpt>
      <trkpt lat="43.88293" lon="3.23512">
        <ele>790</ele>
        <time>2026-03-25T10:38:49.000Z</time>
      </trkpt>
      <trkpt lat="43.88299" lon="3.23545">
        <ele>790</ele>
        <time>2026-03-25T10:39:16.000Z</time>
      </trkpt>
      <trkpt lat="43.88315" lon="3.23564">
        <ele>790</ele>
        <time>2026-03-25T10:39:40.000Z</time>
      </trkpt>
      <trkpt lat="43.88282" lon="3.23548">
        <ele>793</ele>
        <time>2026-03-25T10:40:51.000Z</time>
      </trkpt>
      <trkpt lat="43.8828" lon="3.23548">
        <ele>793</ele>
        <time>2026-03-25T10:40:54.000Z</time>
      </trkpt>
      <trkpt lat="43.88279" lon="3.23548">
        <ele>793</ele>
        <time>2026-03-25T10:40:55.000Z</time>
      </trkpt>
      <trkpt lat="43.88279" lon="3.23548">
        <ele>793</ele>
        <time>2026-03-25T10:40:55.000Z</time>
      </trkpt>
      <trkpt lat="43.8828" lon="3.23548">
        <ele>793</ele>
        <time>2026-03-25T10:40:56.000Z</time>
      </trkpt>
      <trkpt lat="43.88315" lon="3.23564">
        <ele>790</ele>
        <time>2026-03-25T10:41:39.000Z</time>
      </trkpt>
      <trkpt lat="43.88325" lon="3.23564">
        <ele>790</ele>
        <time>2026-03-25T10:41:50.000Z</time>
      </trkpt>
      <trkpt lat="43.88334" lon="3.23572">
        <ele>790</ele>
        <time>2026-03-25T10:42:03.000Z</time>
      </trkpt>
      <trkpt lat="43.88345" lon="3.23599">
        <ele>790</ele>
        <time>2026-03-25T10:42:28.000Z</time>
      </trkpt>
      <trkpt lat="43.88347" lon="3.23598">
        <ele>790</ele>
        <time>2026-03-25T10:45:15.000Z</time>
      </trkpt>
      <trkpt lat="43.88345" lon="3.23599">
        <ele>790</ele>
        <time>2026-03-25T10:45:17.000Z</time>
      </trkpt>
      <trkpt lat="43.88346" lon="3.23603">
        <ele>790</ele>
        <time>2026-03-25T10:45:20.000Z</time>
      </trkpt>
      <trkpt lat="43.88352" lon="3.23643">
        <ele>790</ele>
        <time>2026-03-25T10:45:54.000Z</time>
      </trkpt>
      <trkpt lat="43.88354" lon="3.23705">
        <ele>784</ele>
        <time>2026-03-25T10:46:45.000Z</time>
      </trkpt>
      <trkpt lat="43.88342" lon="3.23717">
        <ele>782</ele>
        <time>2026-03-25T10:47:02.000Z</time>
      </trkpt>
      <trkpt lat="43.88324" lon="3.23756">
        <ele>780</ele>
        <time>2026-03-25T10:47:40.000Z</time>
      </trkpt>
      <trkpt lat="43.88317" lon="3.23775">
        <ele>780</ele>
        <time>2026-03-25T10:47:58.000Z</time>
      </trkpt>
      <trkpt lat="43.88313" lon="3.23801">
        <ele>778</ele>
        <time>2026-03-25T10:48:20.000Z</time>
      </trkpt>
      <trkpt lat="43.88314" lon="3.23858">
        <ele>776</ele>
        <time>2026-03-25T10:49:08.000Z</time>
      </trkpt>
      <trkpt lat="43.8832" lon="3.23891">
        <ele>774</ele>
        <time>2026-03-25T10:49:36.000Z</time>
      </trkpt>
      <trkpt lat="43.88371" lon="3.24103">
        <ele>762</ele>
        <time>2026-03-25T10:52:41.000Z</time>
      </trkpt>
      <trkpt lat="43.88375" lon="3.24112">
        <ele>761</ele>
        <time>2026-03-25T10:52:50.000Z</time>
      </trkpt>
      <trkpt lat="43.88375" lon="3.24112">
        <ele>761</ele>
        <time>2026-03-25T10:52:50.000Z</time>
      </trkpt>
      <trkpt lat="43.88375" lon="3.24111">
        <ele>761</ele>
        <time>2026-03-25T10:52:51.000Z</time>
      </trkpt>
      <trkpt lat="43.88371" lon="3.24103">
        <ele>762</ele>
        <time>2026-03-25T10:53:09.000Z</time>
      </trkpt>
      <trkpt lat="43.8838" lon="3.24165">
        <ele>764</ele>
        <time>2026-03-25T10:54:22.000Z</time>
      </trkpt>
      <trkpt lat="43.88365" lon="3.24196">
        <ele>764</ele>
        <time>2026-03-25T10:54:53.000Z</time>
      </trkpt>
      <trkpt lat="43.88361" lon="3.24214">
        <ele>765</ele>
        <time>2026-03-25T10:55:18.000Z</time>
      </trkpt>
      <trkpt lat="43.88344" lon="3.24248">
        <ele>769</ele>
        <time>2026-03-25T10:56:34.000Z</time>
      </trkpt>
      <trkpt lat="43.88333" lon="3.24303">
        <ele>770</ele>
        <time>2026-03-25T10:57:31.000Z</time>
      </trkpt>
      <trkpt lat="43.88324" lon="3.24328">
        <ele>770</ele>
        <time>2026-03-25T10:57:54.000Z</time>
      </trkpt>
      <trkpt lat="43.88217" lon="3.24433">
        <ele>782</ele>
        <time>2026-03-25T11:02:27.000Z</time>
      </trkpt>
      <trkpt lat="43.88209" lon="3.2449">
        <ele>789</ele>
        <time>2026-03-25T11:04:27.000Z</time>
      </trkpt>
      <trkpt lat="43.88214" lon="3.24535">
        <ele>793</ele>
        <time>2026-03-25T11:05:46.000Z</time>
      </trkpt>
      <trkpt lat="43.88212" lon="3.24575">
        <ele>799</ele>
        <time>2026-03-25T11:07:21.000Z</time>
      </trkpt>
      <trkpt lat="43.8821" lon="3.24592">
        <ele>801</ele>
        <time>2026-03-25T11:07:56.000Z</time>
      </trkpt>
      <trkpt lat="43.88203" lon="3.24599">
        <ele>803</ele>
        <time>2026-03-25T11:08:26.000Z</time>
      </trkpt>
      <trkpt lat="43.88203" lon="3.24598">
        <ele>803</ele>
        <time>2026-03-25T10:58:27.000Z</time>
      </trkpt>
      <trkpt lat="43.88203" lon="3.24599">
        <ele>803</ele>
        <time>2026-03-25T10:58:27.000Z</time>
      </trkpt>
      <trkpt lat="43.88202" lon="3.24599">
        <ele>803</ele>
        <time>2026-03-25T10:58:27.000Z</time>
      </trkpt>
      <trkpt lat="43.88183" lon="3.24596">
        <ele>805</ele>
        <time>2026-03-25T10:59:10.000Z</time>
      </trkpt>
      <trkpt lat="43.88119" lon="3.24604">
        <ele>804</ele>
        <time>2026-03-25T11:00:23.000Z</time>
      </trkpt>
      <trkpt lat="43.88112" lon="3.2461">
        <ele>805</ele>
        <time>2026-03-25T11:00:43.000Z</time>
      </trkpt>
      <trkpt lat="43.88096" lon="3.24635">
        <ele>804</ele>
        <time>2026-03-25T11:01:11.000Z</time>
      </trkpt>
      <trkpt lat="43.8808" lon="3.2464">
        <ele>804</ele>
        <time>2026-03-25T11:01:30.000Z</time>
      </trkpt>
      <trkpt lat="43.88057" lon="3.2466">
        <ele>804</ele>
        <time>2026-03-25T11:02:01.000Z</time>
      </trkpt>
      <trkpt lat="43.8805" lon="3.24662">
        <ele>804</ele>
        <time>2026-03-25T11:02:10.000Z</time>
      </trkpt>
      <trkpt lat="43.8803" lon="3.24656">
        <ele>804</ele>
        <time>2026-03-25T11:02:33.000Z</time>
      </trkpt>
      <trkpt lat="43.88014" lon="3.24658">
        <ele>803</ele>
        <time>2026-03-25T11:02:52.000Z</time>
      </trkpt>
      <trkpt lat="43.87991" lon="3.24682">
        <ele>804</ele>
        <time>2026-03-25T11:03:35.000Z</time>
      </trkpt>
      <trkpt lat="43.87948" lon="3.247">
        <ele>808</ele>
        <time>2026-03-25T11:05:07.000Z</time>
      </trkpt>
      <trkpt lat="43.87944" lon="3.24703">
        <ele>808</ele>
        <time>2026-03-25T11:05:13.000Z</time>
      </trkpt>
      <trkpt lat="43.87909" lon="3.24686">
        <ele>806</ele>
        <time>2026-03-25T11:05:55.000Z</time>
      </trkpt>
      <trkpt lat="43.87879" lon="3.24677">
        <ele>804</ele>
        <time>2026-03-25T11:06:30.000Z</time>
      </trkpt>
      <trkpt lat="43.87843" lon="3.24672">
        <ele>805</ele>
        <time>2026-03-25T11:07:22.000Z</time>
      </trkpt>
      <trkpt lat="43.87794" lon="3.24689">
        <ele>805</ele>
        <time>2026-03-25T11:08:20.000Z</time>
      </trkpt>
      <trkpt lat="43.87739" lon="3.24721">
        <ele>804</ele>
        <time>2026-03-25T11:09:28.000Z</time>
      </trkpt>
      <trkpt lat="43.87699" lon="3.2476">
        <ele>801</ele>
        <time>2026-03-25T11:10:24.000Z</time>
      </trkpt>
      <trkpt lat="43.87697" lon="3.24763">
        <ele>801</ele>
        <time>2026-03-25T11:10:27.000Z</time>
      </trkpt>
      <trkpt lat="43.87681" lon="3.24786">
        <ele>799</ele>
        <time>2026-03-25T11:10:54.000Z</time>
      </trkpt>
      <trkpt lat="43.87679" lon="3.24801">
        <ele>798</ele>
        <time>2026-03-25T11:11:06.000Z</time>
      </trkpt>
      <trkpt lat="43.87669" lon="3.24814">
        <ele>797</ele>
        <time>2026-03-25T11:11:21.000Z</time>
      </trkpt>
      <trkpt lat="43.876" lon="3.24878">
        <ele>797</ele>
        <time>2026-03-25T11:12:56.000Z</time>
      </trkpt>
      <trkpt lat="43.87561" lon="3.24934">
        <ele>796</ele>
        <time>2026-03-25T11:14:01.000Z</time>
      </trkpt>
      <trkpt lat="43.87552" lon="3.24948">
        <ele>796</ele>
        <time>2026-03-25T11:14:16.000Z</time>
      </trkpt>
      <trkpt lat="43.87525" lon="3.24989">
        <ele>795</ele>
        <time>2026-03-25T11:15:02.000Z</time>
      </trkpt>
      <trkpt lat="43.87483" lon="3.25042">
        <ele>792</ele>
        <time>2026-03-25T11:16:07.000Z</time>
      </trkpt>
      <trkpt lat="43.87483" lon="3.25042">
        <ele>792</ele>
        <time>2026-03-25T11:16:07.000Z</time>
      </trkpt>
      <trkpt lat="43.8747" lon="3.25059">
        <ele>791</ele>
        <time>2026-03-25T11:16:27.000Z</time>
      </trkpt>
      <trkpt lat="43.87456" lon="3.25074">
        <ele>789</ele>
        <time>2026-03-25T11:16:47.000Z</time>
      </trkpt>
      <trkpt lat="43.87435" lon="3.25086">
        <ele>785</ele>
        <time>2026-03-25T11:17:13.000Z</time>
      </trkpt>
      <trkpt lat="43.8744" lon="3.25087">
        <ele>787</ele>
        <time>2026-03-25T11:17:39.000Z</time>
      </trkpt>
      <trkpt lat="43.8742" lon="3.25024">
        <ele>778</ele>
        <time>2026-03-25T11:18:36.000Z</time>
      </trkpt>
      <trkpt lat="43.8742" lon="3.25024">
        <ele>778</ele>
        <time>2026-03-25T11:18:36.000Z</time>
      </trkpt>
      <trkpt lat="43.87408" lon="3.25029">
        <ele>776</ele>
        <time>2026-03-25T11:18:51.000Z</time>
      </trkpt>
      <trkpt lat="43.87347" lon="3.25078">
        <ele>770</ele>
        <time>2026-03-25T11:20:12.000Z</time>
      </trkpt>
      <trkpt lat="43.87273" lon="3.25127">
        <ele>765</ele>
        <time>2026-03-25T11:21:45.000Z</time>
      </trkpt>
      <trkpt lat="43.87228" lon="3.25164">
        <ele>762</ele>
        <time>2026-03-25T11:22:45.000Z</time>
      </trkpt>
      <trkpt lat="43.87189" lon="3.25248">
        <ele>760</ele>
        <time>2026-03-25T11:24:08.000Z</time>
      </trkpt>
      <trkpt lat="43.87189" lon="3.25248">
        <ele>760</ele>
        <time>2026-03-25T11:24:08.000Z</time>
      </trkpt>
      <trkpt lat="43.87177" lon="3.25275">
        <ele>759</ele>
        <time>2026-03-25T11:24:34.000Z</time>
      </trkpt>
      <trkpt lat="43.87158" lon="3.25296">
        <ele>758</ele>
        <time>2026-03-25T11:25:02.000Z</time>
      </trkpt>
      <trkpt lat="43.87083" lon="3.25358">
        <ele>759</ele>
        <time>2026-03-25T11:26:52.000Z</time>
      </trkpt>
      <trkpt lat="43.87023" lon="3.25382">
        <ele>759</ele>
        <time>2026-03-25T11:28:04.000Z</time>
      </trkpt>
      <trkpt lat="43.87024" lon="3.25387">
        <ele>759</ele>
        <time>2026-03-25T11:22:12.000Z</time>
      </trkpt>
      <trkpt lat="43.87032" lon="3.25467">
        <ele>760</ele>
        <time>2026-03-25T11:24:12.000Z</time>
      </trkpt>
      <trkpt lat="43.87016" lon="3.25457">
        <ele>761</ele>
        <time>2026-03-25T11:24:57.000Z</time>
      </trkpt>
      <trkpt lat="43.86994" lon="3.25453">
        <ele>761</ele>
        <time>2026-03-25T11:25:36.000Z</time>
      </trkpt>
      <trkpt lat="43.8697" lon="3.25459">
        <ele>759</ele>
        <time>2026-03-25T11:25:54.000Z</time>
      </trkpt>
      <trkpt lat="43.86949" lon="3.2547">
        <ele>757</ele>
        <time>2026-03-25T11:26:09.000Z</time>
      </trkpt>
      <trkpt lat="43.86927" lon="3.25478">
        <ele>755</ele>
        <time>2026-03-25T11:26:33.000Z</time>
      </trkpt>
      <trkpt lat="43.86904" lon="3.25482">
        <ele>753</ele>
        <time>2026-03-25T11:26:57.000Z</time>
      </trkpt>
      <trkpt lat="43.8688" lon="3.25479">
        <ele>752</ele>
        <time>2026-03-25T11:27:24.000Z</time>
      </trkpt>
      <trkpt lat="43.86856" lon="3.25485">
        <ele>751</ele>
        <time>2026-03-25T11:27:45.000Z</time>
      </trkpt>
      <trkpt lat="43.86836" lon="3.25504">
        <ele>751</ele>
        <time>2026-03-25T11:28:03.000Z</time>
      </trkpt>
      <trkpt lat="43.86836" lon="3.255">
        <ele>751</ele>
        <time>2026-03-25T11:28:07.000Z</time>
      </trkpt>
      <trkpt lat="43.86825" lon="3.255">
        <ele>751</ele>
        <time>2026-03-25T11:28:19.000Z</time>
      </trkpt>
      <trkpt lat="43.86824" lon="3.25515">
        <ele>751</ele>
        <time>2026-03-25T11:28:31.000Z</time>
      </trkpt>
      <trkpt lat="43.86856" lon="3.25657">
        <ele>751</ele>
        <time>2026-03-25T11:30:33.000Z</time>
      </trkpt>
      <trkpt lat="43.86862" lon="3.2571">
        <ele>752</ele>
        <time>2026-03-25T11:31:28.000Z</time>
      </trkpt>
      <trkpt lat="43.86861" lon="3.25737">
        <ele>751</ele>
        <time>2026-03-25T11:31:50.000Z</time>
      </trkpt>
      <trkpt lat="43.86848" lon="3.25757">
        <ele>751</ele>
        <time>2026-03-25T11:32:12.000Z</time>
      </trkpt>
      <trkpt lat="43.86849" lon="3.25781">
        <ele>750</ele>
        <time>2026-03-25T11:32:31.000Z</time>
      </trkpt>
      <trkpt lat="43.86849" lon="3.25781">
        <ele>750</ele>
        <time>2026-03-25T11:32:31.000Z</time>
      </trkpt>
      <trkpt lat="43.86853" lon="3.25791">
        <ele>749</ele>
        <time>2026-03-25T11:32:41.000Z</time>
      </trkpt>
      <trkpt lat="43.86874" lon="3.25801">
        <ele>749</ele>
        <time>2026-03-25T11:33:06.000Z</time>
      </trkpt>
      <trkpt lat="43.86916" lon="3.25831">
        <ele>749</ele>
        <time>2026-03-25T11:34:00.000Z</time>
      </trkpt>
      <trkpt lat="43.86966" lon="3.25847">
        <ele>748</ele>
        <time>2026-03-25T11:34:59.000Z</time>
      </trkpt>
      <trkpt lat="43.86964" lon="3.25858">
        <ele>747</ele>
        <time>2026-03-25T11:35:09.000Z</time>
      </trkpt>
      <trkpt lat="43.8696" lon="3.25857">
        <ele>747</ele>
        <time>2026-03-25T11:33:54.000Z</time>
      </trkpt>
      <trkpt lat="43.86964" lon="3.25858">
        <ele>747</ele>
        <time>2026-03-25T11:33:58.000Z</time>
      </trkpt>
      <trkpt lat="43.86953" lon="3.25915">
        <ele>746</ele>
        <time>2026-03-25T11:34:47.000Z</time>
      </trkpt>
      <trkpt lat="43.86967" lon="3.2597">
        <ele>746</ele>
        <time>2026-03-25T11:35:35.000Z</time>
      </trkpt>
      <trkpt lat="43.86984" lon="3.25984">
        <ele>746</ele>
        <time>2026-03-25T11:35:57.000Z</time>
      </trkpt>
      <trkpt lat="43.86985" lon="3.2603">
        <ele>746</ele>
        <time>2026-03-25T11:36:35.000Z</time>
      </trkpt>
      <trkpt lat="43.86994" lon="3.26036">
        <ele>746</ele>
        <time>2026-03-25T11:36:46.000Z</time>
      </trkpt>
      <trkpt lat="43.86979" lon="3.26126">
        <ele>748</ele>
        <time>2026-03-25T11:38:23.000Z</time>
      </trkpt>
      <trkpt lat="43.8697" lon="3.26149">
        <ele>747</ele>
        <time>2026-03-25T11:38:44.000Z</time>
      </trkpt>
      <trkpt lat="43.86964" lon="3.26156">
        <ele>747</ele>
        <time>2026-03-25T11:38:53.000Z</time>
      </trkpt>
      <trkpt lat="43.8695" lon="3.26207">
        <ele>746</ele>
        <time>2026-03-25T11:39:39.000Z</time>
      </trkpt>
      <trkpt lat="43.86933" lon="3.26212">
        <ele>745</ele>
        <time>2026-03-25T11:39:59.000Z</time>
      </trkpt>
      <trkpt lat="43.86933" lon="3.26218">
        <ele>745</ele>
        <time>2026-03-25T11:40:04.000Z</time>
      </trkpt>
      <trkpt lat="43.86933" lon="3.26218">
        <ele>745</ele>
        <time>2026-03-25T11:40:04.000Z</time>
      </trkpt>
      <trkpt lat="43.86941" lon="3.26315">
        <ele>747</ele>
        <time>2026-03-25T11:41:45.000Z</time>
      </trkpt>
      <trkpt lat="43.86954" lon="3.26346">
        <ele>746</ele>
        <time>2026-03-25T11:42:15.000Z</time>
      </trkpt>
      <trkpt lat="43.86936" lon="3.264">
        <ele>744</ele>
        <time>2026-03-25T11:43:04.000Z</time>
      </trkpt>
      <trkpt lat="43.86935" lon="3.26412">
        <ele>744</ele>
        <time>2026-03-25T11:43:14.000Z</time>
      </trkpt>
      <trkpt lat="43.86925" lon="3.26431">
        <ele>743</ele>
        <time>2026-03-25T11:43:33.000Z</time>
      </trkpt>
      <trkpt lat="43.86919" lon="3.26451">
        <ele>743</ele>
        <time>2026-03-25T11:43:51.000Z</time>
      </trkpt>
      <trkpt lat="43.86937" lon="3.266">
        <ele>743</ele>
        <time>2026-03-25T11:45:55.000Z</time>
      </trkpt>
      <trkpt lat="43.86922" lon="3.26639">
        <ele>742</ele>
        <time>2026-03-25T11:46:31.000Z</time>
      </trkpt>
      <trkpt lat="43.86911" lon="3.26696">
        <ele>742</ele>
        <time>2026-03-25T11:47:20.000Z</time>
      </trkpt>
      <trkpt lat="43.86875" lon="3.26803">
        <ele>741</ele>
        <time>2026-03-25T11:48:57.000Z</time>
      </trkpt>
      <trkpt lat="43.86879" lon="3.26813">
        <ele>741</ele>
        <time>2026-03-25T11:49:06.000Z</time>
      </trkpt>
      <trkpt lat="43.86899" lon="3.26828">
        <ele>741</ele>
        <time>2026-03-25T11:49:32.000Z</time>
      </trkpt>
      <trkpt lat="43.86922" lon="3.26877">
        <ele>742</ele>
        <time>2026-03-25T11:50:31.000Z</time>
      </trkpt>
      <trkpt lat="43.86933" lon="3.2691">
        <ele>741</ele>
        <time>2026-03-25T11:51:01.000Z</time>
      </trkpt>
      <trkpt lat="43.86934" lon="3.26924">
        <ele>741</ele>
        <time>2026-03-25T11:51:13.000Z</time>
      </trkpt>
      <trkpt lat="43.86911" lon="3.27069">
        <ele>743</ele>
        <time>2026-03-25T11:53:36.000Z</time>
      </trkpt>
      <trkpt lat="43.86871" lon="3.27228">
        <ele>742</ele>
        <time>2026-03-25T11:55:55.000Z</time>
      </trkpt>
      <trkpt lat="43.86869" lon="3.27227">
        <ele>741</ele>
        <time>2026-03-25T11:51:48.000Z</time>
      </trkpt>
      <trkpt lat="43.86871" lon="3.27228">
        <ele>742</ele>
        <time>2026-03-25T11:52:01.000Z</time>
      </trkpt>
      <trkpt lat="43.86868" lon="3.27239">
        <ele>742</ele>
        <time>2026-03-25T11:52:10.000Z</time>
      </trkpt>
      <trkpt lat="43.86791" lon="3.27175">
        <ele>743</ele>
        <time>2026-03-25T11:54:03.000Z</time>
      </trkpt>
      <trkpt lat="43.86737" lon="3.27135">
        <ele>740</ele>
        <time>2026-03-25T11:55:13.000Z</time>
      </trkpt>
      <trkpt lat="43.86737" lon="3.27135">
        <ele>740</ele>
        <time>2026-03-25T11:55:13.000Z</time>
      </trkpt>
      <trkpt lat="43.86737" lon="3.27135">
        <ele>740</ele>
        <time>2026-03-25T11:55:13.000Z</time>
      </trkpt>
      <trkpt lat="43.86715" lon="3.27121">
        <ele>738</ele>
        <time>2026-03-25T11:55:40.000Z</time>
      </trkpt>
      <trkpt lat="43.86522" lon="3.27155">
        <ele>732</ele>
        <time>2026-03-25T11:59:23.000Z</time>
      </trkpt>
      <trkpt lat="43.86499" lon="3.27152">
        <ele>731</ele>
        <time>2026-03-25T11:59:50.000Z</time>
      </trkpt>
      <trkpt lat="43.86492" lon="3.27147">
        <ele>731</ele>
        <time>2026-03-25T11:59:58.000Z</time>
      </trkpt>
      <trkpt lat="43.86492" lon="3.27147">
        <ele>731</ele>
        <time>2026-03-25T12:30:00.000Z</time>
      </trkpt>
      <trkpt lat="43.86472" lon="3.27133">
        <ele>731</ele>
        <time>2026-03-25T12:30:24.000Z</time>
      </trkpt>
      <trkpt lat="43.86449" lon="3.27121">
        <ele>731</ele>
        <time>2026-03-25T12:32:09.000Z</time>
      </trkpt>
      <trkpt lat="43.86428" lon="3.27106">
        <ele>730</ele>
        <time>2026-03-25T12:32:27.000Z</time>
      </trkpt>
      <trkpt lat="43.86406" lon="3.27092">
        <ele>730</ele>
        <time>2026-03-25T12:32:48.000Z</time>
      </trkpt>
      <trkpt lat="43.86385" lon="3.27077">
        <ele>730</ele>
        <time>2026-03-25T12:33:12.000Z</time>
      </trkpt>
      <trkpt lat="43.86364" lon="3.27064">
        <ele>730</ele>
        <time>2026-03-25T12:33:33.000Z</time>
      </trkpt>
      <trkpt lat="43.86343" lon="3.27051">
        <ele>729</ele>
        <time>2026-03-25T12:33:51.000Z</time>
      </trkpt>
      <trkpt lat="43.86322" lon="3.27036">
        <ele>729</ele>
        <time>2026-03-25T12:34:15.000Z</time>
      </trkpt>
      <trkpt lat="43.86301" lon="3.2702">
        <ele>729</ele>
        <time>2026-03-25T12:34:36.000Z</time>
      </trkpt>
      <trkpt lat="43.8628" lon="3.27006">
        <ele>728</ele>
        <time>2026-03-25T12:34:54.000Z</time>
      </trkpt>
      <trkpt lat="43.86259" lon="3.26992">
        <ele>728</ele>
        <time>2026-03-25T12:35:18.000Z</time>
      </trkpt>
      <trkpt lat="43.86239" lon="3.26978">
        <ele>728</ele>
        <time>2026-03-25T12:35:39.000Z</time>
      </trkpt>
      <trkpt lat="43.86219" lon="3.26965">
        <ele>728</ele>
        <time>2026-03-25T12:36:06.000Z</time>
      </trkpt>
      <trkpt lat="43.86198" lon="3.26952">
        <ele>729</ele>
        <time>2026-03-25T12:36:27.000Z</time>
      </trkpt>
      <trkpt lat="43.86177" lon="3.26938">
        <ele>729</ele>
        <time>2026-03-25T12:36:45.000Z</time>
      </trkpt>
      <trkpt lat="43.86158" lon="3.26921">
        <ele>730</ele>
        <time>2026-03-25T12:37:12.000Z</time>
      </trkpt>
      <trkpt lat="43.86136" lon="3.26904">
        <ele>730</ele>
        <time>2026-03-25T12:37:54.000Z</time>
      </trkpt>
      <trkpt lat="43.86114" lon="3.26892">
        <ele>729</ele>
        <time>2026-03-25T12:38:15.000Z</time>
      </trkpt>
      <trkpt lat="43.86093" lon="3.26881">
        <ele>728</ele>
        <time>2026-03-25T12:38:33.000Z</time>
      </trkpt>
      <trkpt lat="43.86077" lon="3.26867">
        <ele>727</ele>
        <time>2026-03-25T12:38:57.000Z</time>
      </trkpt>
      <trkpt lat="43.8609" lon="3.26849">
        <ele>727</ele>
        <time>2026-03-25T12:39:54.000Z</time>
      </trkpt>
      <trkpt lat="43.86106" lon="3.26828">
        <ele>726</ele>
        <time>2026-03-25T12:40:21.000Z</time>
      </trkpt>
      <trkpt lat="43.8612" lon="3.26803">
        <ele>724</ele>
        <time>2026-03-25T12:40:57.000Z</time>
      </trkpt>
      <trkpt lat="43.86126" lon="3.26781">
        <ele>726</ele>
        <time>2026-03-25T12:41:24.000Z</time>
      </trkpt>
      <trkpt lat="43.86114" lon="3.26795">
        <ele>726</ele>
        <time>2026-03-25T12:44:22.000Z</time>
      </trkpt>
      <trkpt lat="43.86111" lon="3.26824">
        <ele>725</ele>
        <time>2026-03-25T12:44:58.000Z</time>
      </trkpt>
      <trkpt lat="43.86121" lon="3.26847">
        <ele>726</ele>
        <time>2026-03-25T12:45:31.000Z</time>
      </trkpt>
      <trkpt lat="43.86142" lon="3.26841">
        <ele>726</ele>
        <time>2026-03-25T12:45:55.000Z</time>
      </trkpt>
      <trkpt lat="43.86165" lon="3.26831">
        <ele>726</ele>
        <time>2026-03-25T12:46:19.000Z</time>
      </trkpt>
      <trkpt lat="43.86187" lon="3.2682">
        <ele>726</ele>
        <time>2026-03-25T12:46:43.000Z</time>
      </trkpt>
      <trkpt lat="43.86207" lon="3.26805">
        <ele>726</ele>
        <time>2026-03-25T12:47:04.000Z</time>
      </trkpt>
      <trkpt lat="43.86222" lon="3.26777">
        <ele>725</ele>
        <time>2026-03-25T12:47:25.000Z</time>
      </trkpt>
      <trkpt lat="43.86226" lon="3.26746">
        <ele>726</ele>
        <time>2026-03-25T12:47:52.000Z</time>
      </trkpt>
      <trkpt lat="43.86226" lon="3.26717">
        <ele>728</ele>
        <time>2026-03-25T12:48:43.000Z</time>
      </trkpt>
      <trkpt lat="43.86243" lon="3.26701">
        <ele>731</ele>
        <time>2026-03-25T12:52:04.000Z</time>
      </trkpt>
      <trkpt lat="43.86269" lon="3.26694">
        <ele>730</ele>
        <time>2026-03-25T12:53:07.000Z</time>
      </trkpt>
      <trkpt lat="43.8629" lon="3.2669">
        <ele>728</ele>
        <time>2026-03-25T12:53:25.000Z</time>
      </trkpt>
      <trkpt lat="43.86302" lon="3.26757">
        <ele>724</ele>
        <time>2026-03-25T12:54:22.000Z</time>
      </trkpt>
      <trkpt lat="43.86309" lon="3.26755">
        <ele>724</ele>
        <time>2026-03-25T12:54:30.000Z</time>
      </trkpt>
      <trkpt lat="43.8634" lon="3.2674">
        <ele>724</ele>
        <time>2026-03-25T12:55:09.000Z</time>
      </trkpt>
      <trkpt lat="43.86363" lon="3.26719">
        <ele>724</ele>
        <time>2026-03-25T12:55:40.000Z</time>
      </trkpt>
      <trkpt lat="43.86369" lon="3.26706">
        <ele>724</ele>
        <time>2026-03-25T12:55:53.000Z</time>
      </trkpt>
      <trkpt lat="43.8638" lon="3.26657">
        <ele>722</ele>
        <time>2026-03-25T12:56:36.000Z</time>
      </trkpt>
      <trkpt lat="43.86375" lon="3.26676">
        <ele>722</ele>
        <time>2026-03-25T12:56:53.000Z</time>
      </trkpt>
      <trkpt lat="43.86367" lon="3.2671">
        <ele>724</ele>
        <time>2026-03-25T12:57:43.000Z</time>
      </trkpt>
      <trkpt lat="43.86367" lon="3.2671">
        <ele>724</ele>
        <time>2026-03-25T12:57:43.000Z</time>
      </trkpt>
      <trkpt lat="43.86369" lon="3.26706">
        <ele>724</ele>
        <time>2026-03-25T12:57:47.000Z</time>
      </trkpt>
      <trkpt lat="43.86378" lon="3.26663">
        <ele>722</ele>
        <time>2026-03-25T12:58:24.000Z</time>
      </trkpt>
      <trkpt lat="43.86378" lon="3.26663">
        <ele>722</ele>
        <time>2026-03-25T12:58:24.000Z</time>
      </trkpt>
      <trkpt lat="43.86375" lon="3.26676">
        <ele>722</ele>
        <time>2026-03-25T12:58:35.000Z</time>
      </trkpt>
      <trkpt lat="43.86367" lon="3.26713">
        <ele>724</ele>
        <time>2026-03-25T12:59:27.000Z</time>
      </trkpt>
      <trkpt lat="43.8634" lon="3.2674">
        <ele>724</ele>
        <time>2026-03-25T13:00:04.000Z</time>
      </trkpt>
      <trkpt lat="43.86275" lon="3.26766">
        <ele>725</ele>
        <time>2026-03-25T13:01:32.000Z</time>
      </trkpt>
      <trkpt lat="43.86243" lon="3.26783">
        <ele>726</ele>
        <time>2026-03-25T13:02:22.000Z</time>
      </trkpt>
      <trkpt lat="43.86206" lon="3.26811">
        <ele>726</ele>
        <time>2026-03-25T13:03:10.000Z</time>
      </trkpt>
      <trkpt lat="43.86159" lon="3.26834">
        <ele>725</ele>
        <time>2026-03-25T13:04:07.000Z</time>
      </trkpt>
      <trkpt lat="43.86081" lon="3.26853">
        <ele>726</ele>
        <time>2026-03-25T13:05:48.000Z</time>
      </trkpt>
      <trkpt lat="43.86082" lon="3.26859">
        <ele>727</ele>
        <time>2026-03-25T12:58:22.000Z</time>
      </trkpt>
      <trkpt lat="43.86094" lon="3.26879">
        <ele>727</ele>
        <time>2026-03-25T12:59:01.000Z</time>
      </trkpt>
      <trkpt lat="43.86116" lon="3.26891">
        <ele>728</ele>
        <time>2026-03-25T12:59:19.000Z</time>
      </trkpt>
      <trkpt lat="43.86139" lon="3.26904">
        <ele>730</ele>
        <time>2026-03-25T12:59:40.000Z</time>
      </trkpt>
      <trkpt lat="43.86162" lon="3.26919">
        <ele>731</ele>
        <time>2026-03-25T13:00:01.000Z</time>
      </trkpt>
      <trkpt lat="43.86184" lon="3.26933">
        <ele>729</ele>
        <time>2026-03-25T13:00:19.000Z</time>
      </trkpt>
      <trkpt lat="43.86205" lon="3.26949">
        <ele>729</ele>
        <time>2026-03-25T13:00:40.000Z</time>
      </trkpt>
      <trkpt lat="43.86226" lon="3.26965">
        <ele>728</ele>
        <time>2026-03-25T13:00:58.000Z</time>
      </trkpt>
      <trkpt lat="43.86247" lon="3.26978">
        <ele>728</ele>
        <time>2026-03-25T13:01:16.000Z</time>
      </trkpt>
      <trkpt lat="43.86266" lon="3.26993">
        <ele>728</ele>
        <time>2026-03-25T13:01:34.000Z</time>
      </trkpt>
      <trkpt lat="43.86288" lon="3.27008">
        <ele>729</ele>
        <time>2026-03-25T13:01:55.000Z</time>
      </trkpt>
      <trkpt lat="43.86309" lon="3.27021">
        <ele>729</ele>
        <time>2026-03-25T13:02:13.000Z</time>
      </trkpt>
      <trkpt lat="43.86332" lon="3.27032">
        <ele>729</ele>
        <time>2026-03-25T13:02:31.000Z</time>
      </trkpt>
      <trkpt lat="43.86353" lon="3.27046">
        <ele>729</ele>
        <time>2026-03-25T13:02:49.000Z</time>
      </trkpt>
      <trkpt lat="43.86373" lon="3.27059">
        <ele>730</ele>
        <time>2026-03-25T13:03:04.000Z</time>
      </trkpt>
      <trkpt lat="43.86394" lon="3.27076">
        <ele>730</ele>
        <time>2026-03-25T13:03:28.000Z</time>
      </trkpt>
      <trkpt lat="43.86415" lon="3.27092">
        <ele>730</ele>
        <time>2026-03-25T13:04:16.000Z</time>
      </trkpt>
      <trkpt lat="43.86439" lon="3.27107">
        <ele>731</ele>
        <time>2026-03-25T13:04:34.000Z</time>
      </trkpt>
      <trkpt lat="43.86459" lon="3.27127">
        <ele>731</ele>
        <time>2026-03-25T13:04:55.000Z</time>
      </trkpt>
      <trkpt lat="43.86468" lon="3.27159">
        <ele>731</ele>
        <time>2026-03-25T13:05:16.000Z</time>
      </trkpt>
      <trkpt lat="43.86465" lon="3.2719">
        <ele>731</ele>
        <time>2026-03-25T13:05:34.000Z</time>
      </trkpt>
      <trkpt lat="43.86454" lon="3.27219">
        <ele>731</ele>
        <time>2026-03-25T13:05:52.000Z</time>
      </trkpt>
      <trkpt lat="43.86443" lon="3.2725">
        <ele>732</ele>
        <time>2026-03-25T13:06:13.000Z</time>
      </trkpt>
      <trkpt lat="43.86436" lon="3.27281">
        <ele>732</ele>
        <time>2026-03-25T13:06:34.000Z</time>
      </trkpt>
      <trkpt lat="43.86431" lon="3.27312">
        <ele>732</ele>
        <time>2026-03-25T13:06:52.000Z</time>
      </trkpt>
      <trkpt lat="43.86427" lon="3.27345">
        <ele>733</ele>
        <time>2026-03-25T13:07:13.000Z</time>
      </trkpt>
      <trkpt lat="43.86424" lon="3.27377">
        <ele>733</ele>
        <time>2026-03-25T13:07:31.000Z</time>
      </trkpt>
      <trkpt lat="43.86421" lon="3.2741">
        <ele>733</ele>
        <time>2026-03-25T13:07:49.000Z</time>
      </trkpt>
      <trkpt lat="43.86416" lon="3.27443">
        <ele>733</ele>
        <time>2026-03-25T13:08:07.000Z</time>
      </trkpt>
      <trkpt lat="43.86406" lon="3.27472">
        <ele>732</ele>
        <time>2026-03-25T13:08:25.000Z</time>
      </trkpt>
      <trkpt lat="43.86395" lon="3.27499">
        <ele>731</ele>
        <time>2026-03-25T13:08:46.000Z</time>
      </trkpt>
      <trkpt lat="43.86385" lon="3.27527">
        <ele>731</ele>
        <time>2026-03-25T13:09:01.000Z</time>
      </trkpt>
      <trkpt lat="43.86377" lon="3.27558">
        <ele>732</ele>
        <time>2026-03-25T13:09:19.000Z</time>
      </trkpt>
      <trkpt lat="43.86369" lon="3.27591">
        <ele>732</ele>
        <time>2026-03-25T13:09:49.000Z</time>
      </trkpt>
      <trkpt lat="43.86365" lon="3.27622">
        <ele>731</ele>
        <time>2026-03-25T13:10:07.000Z</time>
      </trkpt>
      <trkpt lat="43.86366" lon="3.27654">
        <ele>731</ele>
        <time>2026-03-25T13:10:37.000Z</time>
      </trkpt>
      <trkpt lat="43.86366" lon="3.27686">
        <ele>732</ele>
        <time>2026-03-25T13:11:04.000Z</time>
      </trkpt>
      <trkpt lat="43.86361" lon="3.2772">
        <ele>732</ele>
        <time>2026-03-25T13:11:28.000Z</time>
      </trkpt>
      <trkpt lat="43.86349" lon="3.27749">
        <ele>732</ele>
        <time>2026-03-25T13:11:49.000Z</time>
      </trkpt>
      <trkpt lat="43.86334" lon="3.27773">
        <ele>732</ele>
        <time>2026-03-25T13:12:07.000Z</time>
      </trkpt>
      <trkpt lat="43.86319" lon="3.27799">
        <ele>733</ele>
        <time>2026-03-25T13:12:31.000Z</time>
      </trkpt>
      <trkpt lat="43.86306" lon="3.27827">
        <ele>733</ele>
        <time>2026-03-25T13:12:49.000Z</time>
      </trkpt>
      <trkpt lat="43.86296" lon="3.27857">
        <ele>732</ele>
        <time>2026-03-25T13:13:07.000Z</time>
      </trkpt>
      <trkpt lat="43.86286" lon="3.27889">
        <ele>732</ele>
        <time>2026-03-25T13:13:25.000Z</time>
      </trkpt>
      <trkpt lat="43.86276" lon="3.27917">
        <ele>732</ele>
        <time>2026-03-25T13:13:40.000Z</time>
      </trkpt>
      <trkpt lat="43.86264" lon="3.27944">
        <ele>732</ele>
        <time>2026-03-25T13:13:58.000Z</time>
      </trkpt>
      <trkpt lat="43.86251" lon="3.27969">
        <ele>732</ele>
        <time>2026-03-25T13:14:19.000Z</time>
      </trkpt>
      <trkpt lat="43.86236" lon="3.27991">
        <ele>732</ele>
        <time>2026-03-25T13:14:43.000Z</time>
      </trkpt>
      <trkpt lat="43.8622" lon="3.28014">
        <ele>732</ele>
        <time>2026-03-25T13:15:04.000Z</time>
      </trkpt>
      <trkpt lat="43.8621" lon="3.28044">
        <ele>732</ele>
        <time>2026-03-25T13:15:25.000Z</time>
      </trkpt>
      <trkpt lat="43.86207" lon="3.28076">
        <ele>733</ele>
        <time>2026-03-25T13:15:43.000Z</time>
      </trkpt>
      <trkpt lat="43.86202" lon="3.28109">
        <ele>733</ele>
        <time>2026-03-25T13:16:04.000Z</time>
      </trkpt>
      <trkpt lat="43.86195" lon="3.28139">
        <ele>733</ele>
        <time>2026-03-25T13:16:25.000Z</time>
      </trkpt>
      <trkpt lat="43.86177" lon="3.28157">
        <ele>734</ele>
        <time>2026-03-25T13:16:49.000Z</time>
      </trkpt>
      <trkpt lat="43.86154" lon="3.28168">
        <ele>733</ele>
        <time>2026-03-25T13:17:13.000Z</time>
      </trkpt>
      <trkpt lat="43.86138" lon="3.28175">
        <ele>733</ele>
        <time>2026-03-25T13:17:34.000Z</time>
      </trkpt>
      <trkpt lat="43.86155" lon="3.28172">
        <ele>733</ele>
        <time>2026-03-25T13:18:19.000Z</time>
      </trkpt>
      <trkpt lat="43.86172" lon="3.28191">
        <ele>734</ele>
        <time>2026-03-25T13:18:40.000Z</time>
      </trkpt>
      <trkpt lat="43.86174" lon="3.28223">
        <ele>735</ele>
        <time>2026-03-25T13:18:58.000Z</time>
      </trkpt>
      <trkpt lat="43.86175" lon="3.28257">
        <ele>738</ele>
        <time>2026-03-25T13:19:31.000Z</time>
      </trkpt>
      <trkpt lat="43.86174" lon="3.28289">
        <ele>735</ele>
        <time>2026-03-25T13:19:49.000Z</time>
      </trkpt>
      <trkpt lat="43.8617" lon="3.28322">
        <ele>735</ele>
        <time>2026-03-25T13:20:07.000Z</time>
      </trkpt>
      <trkpt lat="43.86171" lon="3.28354">
        <ele>733</ele>
        <time>2026-03-25T13:20:31.000Z</time>
      </trkpt>
      <trkpt lat="43.86176" lon="3.28385">
        <ele>733</ele>
        <time>2026-03-25T13:20:55.000Z</time>
      </trkpt>
      <trkpt lat="43.86188" lon="3.28415">
        <ele>732</ele>
        <time>2026-03-25T13:21:58.000Z</time>
      </trkpt>
      <trkpt lat="43.86197" lon="3.28445">
        <ele>731</ele>
        <time>2026-03-25T13:22:10.000Z</time>
      </trkpt>
      <trkpt lat="43.86206" lon="3.28475">
        <ele>733</ele>
        <time>2026-03-25T13:22:43.000Z</time>
      </trkpt>
      <trkpt lat="43.86202" lon="3.28509">
        <ele>730</ele>
        <time>2026-03-25T13:23:04.000Z</time>
      </trkpt>
      <trkpt lat="43.86185" lon="3.28529">
        <ele>730</ele>
        <time>2026-03-25T13:23:28.000Z</time>
      </trkpt>
      <trkpt lat="43.86176" lon="3.28561">
        <ele>730</ele>
        <time>2026-03-25T13:23:55.000Z</time>
      </trkpt>
      <trkpt lat="43.86178" lon="3.28593">
        <ele>730</ele>
        <time>2026-03-25T13:24:34.000Z</time>
      </trkpt>
      <trkpt lat="43.86191" lon="3.2862">
        <ele>730</ele>
        <time>2026-03-25T13:24:55.000Z</time>
      </trkpt>
      <trkpt lat="43.86201" lon="3.28648">
        <ele>730</ele>
        <time>2026-03-25T13:25:16.000Z</time>
      </trkpt>
      <trkpt lat="43.86202" lon="3.28679">
        <ele>731</ele>
        <time>2026-03-25T13:25:37.000Z</time>
      </trkpt>
      <trkpt lat="43.86205" lon="3.28713">
        <ele>731</ele>
        <time>2026-03-25T13:25:55.000Z</time>
      </trkpt>
      <trkpt lat="43.86217" lon="3.28741">
        <ele>731</ele>
        <time>2026-03-25T13:26:16.000Z</time>
      </trkpt>
      <trkpt lat="43.86226" lon="3.2877">
        <ele>730</ele>
        <time>2026-03-25T13:26:34.000Z</time>
      </trkpt>
      <trkpt lat="43.8623" lon="3.28802">
        <ele>730</ele>
        <time>2026-03-25T13:26:52.000Z</time>
      </trkpt>
      <trkpt lat="43.86232" lon="3.28834">
        <ele>731</ele>
        <time>2026-03-25T13:27:16.000Z</time>
      </trkpt>
      <trkpt lat="43.86228" lon="3.28866">
        <ele>731</ele>
        <time>2026-03-25T13:28:04.000Z</time>
      </trkpt>
      <trkpt lat="43.86224" lon="3.28901">
        <ele>731</ele>
        <time>2026-03-25T13:28:22.000Z</time>
      </trkpt>
      <trkpt lat="43.86224" lon="3.28934">
        <ele>730</ele>
        <time>2026-03-25T13:28:46.000Z</time>
      </trkpt>
      <trkpt lat="43.86226" lon="3.28969">
        <ele>731</ele>
        <time>2026-03-25T13:29:01.000Z</time>
      </trkpt>
      <trkpt lat="43.86228" lon="3.29002">
        <ele>731</ele>
        <time>2026-03-25T13:29:19.000Z</time>
      </trkpt>
      <trkpt lat="43.86229" lon="3.29035">
        <ele>730</ele>
        <time>2026-03-25T13:29:40.000Z</time>
      </trkpt>
      <trkpt lat="43.86227" lon="3.29067">
        <ele>730</ele>
        <time>2026-03-25T13:30:01.000Z</time>
      </trkpt>
      <trkpt lat="43.86223" lon="3.291">
        <ele>730</ele>
        <time>2026-03-25T13:30:25.000Z</time>
      </trkpt>
      <trkpt lat="43.8622" lon="3.29132">
        <ele>730</ele>
        <time>2026-03-25T13:30:43.000Z</time>
      </trkpt>
      <trkpt lat="43.86217" lon="3.29164">
        <ele>730</ele>
        <time>2026-03-25T13:31:04.000Z</time>
      </trkpt>
      <trkpt lat="43.86216" lon="3.29198">
        <ele>729</ele>
        <time>2026-03-25T13:31:28.000Z</time>
      </trkpt>
      <trkpt lat="43.86218" lon="3.29231">
        <ele>729</ele>
        <time>2026-03-25T13:31:52.000Z</time>
      </trkpt>
      <trkpt lat="43.86224" lon="3.29263">
        <ele>728</ele>
        <time>2026-03-25T13:32:16.000Z</time>
      </trkpt>
      <trkpt lat="43.86225" lon="3.29296">
        <ele>727</ele>
        <time>2026-03-25T13:32:40.000Z</time>
      </trkpt>
      <trkpt lat="43.86226" lon="3.29312">
        <ele>728</ele>
        <time>2026-03-25T13:33:04.000Z</time>
      </trkpt>
      <trkpt lat="43.86226" lon="3.29329">
        <ele>729</ele>
        <time>2026-03-25T13:33:01.000Z</time>
      </trkpt>
      <trkpt lat="43.86228" lon="3.29363">
        <ele>730</ele>
        <time>2026-03-25T13:33:25.000Z</time>
      </trkpt>
      <trkpt lat="43.86232" lon="3.29393">
        <ele>731</ele>
        <time>2026-03-25T13:33:46.000Z</time>
      </trkpt>
      <trkpt lat="43.86243" lon="3.29421">
        <ele>731</ele>
        <time>2026-03-25T13:34:07.000Z</time>
      </trkpt>
      <trkpt lat="43.86252" lon="3.2945">
        <ele>731</ele>
        <time>2026-03-25T13:34:28.000Z</time>
      </trkpt>
      <trkpt lat="43.86256" lon="3.2948">
        <ele>731</ele>
        <time>2026-03-25T13:34:46.000Z</time>
      </trkpt>
      <trkpt lat="43.86262" lon="3.29512">
        <ele>731</ele>
        <time>2026-03-25T13:35:07.000Z</time>
      </trkpt>
      <trkpt lat="43.86268" lon="3.29546">
        <ele>732</ele>
        <time>2026-03-25T13:35:31.000Z</time>
      </trkpt>
      <trkpt lat="43.86271" lon="3.2958">
        <ele>732</ele>
        <time>2026-03-25T13:35:52.000Z</time>
      </trkpt>
      <trkpt lat="43.86276" lon="3.29612">
        <ele>732</ele>
        <time>2026-03-25T13:36:10.000Z</time>
      </trkpt>
      <trkpt lat="43.86282" lon="3.29642">
        <ele>732</ele>
        <time>2026-03-25T13:36:40.000Z</time>
      </trkpt>
      <trkpt lat="43.86293" lon="3.29672">
        <ele>731</ele>
        <time>2026-03-25T13:37:01.000Z</time>
      </trkpt>
      <trkpt lat="43.86303" lon="3.29704">
        <ele>731</ele>
        <time>2026-03-25T13:37:22.000Z</time>
      </trkpt>
      <trkpt lat="43.86313" lon="3.29733">
        <ele>731</ele>
        <time>2026-03-25T13:37:40.000Z</time>
      </trkpt>
      <trkpt lat="43.86321" lon="3.29766">
        <ele>731</ele>
        <time>2026-03-25T13:38:01.000Z</time>
      </trkpt>
      <trkpt lat="43.86329" lon="3.29795">
        <ele>731</ele>
        <time>2026-03-25T13:38:22.000Z</time>
      </trkpt>
      <trkpt lat="43.8634" lon="3.29824">
        <ele>731</ele>
        <time>2026-03-25T13:38:43.000Z</time>
      </trkpt>
      <trkpt lat="43.86347" lon="3.29855">
        <ele>730</ele>
        <time>2026-03-25T13:39:07.000Z</time>
      </trkpt>
      <trkpt lat="43.86351" lon="3.29886">
        <ele>730</ele>
        <time>2026-03-25T13:39:25.000Z</time>
      </trkpt>
      <trkpt lat="43.86355" lon="3.29919">
        <ele>730</ele>
        <time>2026-03-25T13:39:46.000Z</time>
      </trkpt>
      <trkpt lat="43.86359" lon="3.2995">
        <ele>730</ele>
        <time>2026-03-25T13:40:10.000Z</time>
      </trkpt>
      <trkpt lat="43.8636" lon="3.29983">
        <ele>731</ele>
        <time>2026-03-25T13:40:31.000Z</time>
      </trkpt>
      <trkpt lat="43.86359" lon="3.30017">
        <ele>731</ele>
        <time>2026-03-25T13:40:46.000Z</time>
      </trkpt>
      <trkpt lat="43.8636" lon="3.3005">
        <ele>731</ele>
        <time>2026-03-25T13:41:07.000Z</time>
      </trkpt>
      <trkpt lat="43.86362" lon="3.30083">
        <ele>732</ele>
        <time>2026-03-25T13:41:28.000Z</time>
      </trkpt>
      <trkpt lat="43.86362" lon="3.30115">
        <ele>732</ele>
        <time>2026-03-25T13:41:49.000Z</time>
      </trkpt>
      <trkpt lat="43.86361" lon="3.30149">
        <ele>732</ele>
        <time>2026-03-25T13:42:13.000Z</time>
      </trkpt>
      <trkpt lat="43.86364" lon="3.30181">
        <ele>732</ele>
        <time>2026-03-25T13:42:34.000Z</time>
      </trkpt>
      <trkpt lat="43.86365" lon="3.30214">
        <ele>733</ele>
        <time>2026-03-25T13:42:58.000Z</time>
      </trkpt>
      <trkpt lat="43.86365" lon="3.30245">
        <ele>734</ele>
        <time>2026-03-25T13:43:16.000Z</time>
      </trkpt>
      <trkpt lat="43.86361" lon="3.30277">
        <ele>734</ele>
        <time>2026-03-25T13:43:31.000Z</time>
      </trkpt>
      <trkpt lat="43.86359" lon="3.30308">
        <ele>734</ele>
        <time>2026-03-25T13:43:55.000Z</time>
      </trkpt>
      <trkpt lat="43.86362" lon="3.30342">
        <ele>734</ele>
        <time>2026-03-25T13:44:22.000Z</time>
      </trkpt>
      <trkpt lat="43.86361" lon="3.30374">
        <ele>733</ele>
        <time>2026-03-25T13:44:37.000Z</time>
      </trkpt>
      <trkpt lat="43.86356" lon="3.30407">
        <ele>733</ele>
        <time>2026-03-25T13:45:01.000Z</time>
      </trkpt>
      <trkpt lat="43.8635" lon="3.30438">
        <ele>733</ele>
        <time>2026-03-25T13:45:16.000Z</time>
      </trkpt>
      <trkpt lat="43.86346" lon="3.30468">
        <ele>733</ele>
        <time>2026-03-25T13:45:37.000Z</time>
      </trkpt>
      <trkpt lat="43.8634" lon="3.30498">
        <ele>732</ele>
        <time>2026-03-25T13:46:10.000Z</time>
      </trkpt>
      <trkpt lat="43.86339" lon="3.30528">
        <ele>731</ele>
        <time>2026-03-25T13:46:31.000Z</time>
      </trkpt>
      <trkpt lat="43.86327" lon="3.30553">
        <ele>730</ele>
        <time>2026-03-25T13:46:46.000Z</time>
      </trkpt>
      <trkpt lat="43.8631" lon="3.30575">
        <ele>728</ele>
        <time>2026-03-25T13:47:04.000Z</time>
      </trkpt>
      <trkpt lat="43.86294" lon="3.30599">
        <ele>729</ele>
        <time>2026-03-25T13:47:31.000Z</time>
      </trkpt>
      <trkpt lat="43.8628" lon="3.30626">
        <ele>730</ele>
        <time>2026-03-25T13:47:55.000Z</time>
      </trkpt>
      <trkpt lat="43.86265" lon="3.30653">
        <ele>732</ele>
        <time>2026-03-25T13:48:13.000Z</time>
      </trkpt>
      <trkpt lat="43.86252" lon="3.30679">
        <ele>734</ele>
        <time>2026-03-25T13:48:28.000Z</time>
      </trkpt>
      <trkpt lat="43.86243" lon="3.30708">
        <ele>735</ele>
        <time>2026-03-25T13:48:46.000Z</time>
      </trkpt>
      <trkpt lat="43.8624" lon="3.3074">
        <ele>734</ele>
        <time>2026-03-25T13:49:13.000Z</time>
      </trkpt>
      <trkpt lat="43.86238" lon="3.30771">
        <ele>734</ele>
        <time>2026-03-25T13:49:34.000Z</time>
      </trkpt>
      <trkpt lat="43.86235" lon="3.30803">
        <ele>734</ele>
        <time>2026-03-25T13:49:52.000Z</time>
      </trkpt>
      <trkpt lat="43.86233" lon="3.30835">
        <ele>733</ele>
        <time>2026-03-25T13:50:16.000Z</time>
      </trkpt>
      <trkpt lat="43.86236" lon="3.30866">
        <ele>733</ele>
        <time>2026-03-25T13:50:37.000Z</time>
      </trkpt>
      <trkpt lat="43.86242" lon="3.309">
        <ele>734</ele>
        <time>2026-03-25T13:50:58.000Z</time>
      </trkpt>
      <trkpt lat="43.86249" lon="3.30932">
        <ele>734</ele>
        <time>2026-03-25T13:51:19.000Z</time>
      </trkpt>
      <trkpt lat="43.86249" lon="3.30962">
        <ele>735</ele>
        <time>2026-03-25T13:51:43.000Z</time>
      </trkpt>
      <trkpt lat="43.8625" lon="3.30966">
        <ele>735</ele>
        <time>2026-03-25T13:51:47.000Z</time>
      </trkpt>
      <trkpt lat="43.86244" lon="3.30979">
        <ele>736</ele>
        <time>2026-03-25T13:52:10.000Z</time>
      </trkpt>
      <trkpt lat="43.86234" lon="3.30987">
        <ele>737</ele>
        <time>2026-03-25T13:52:33.000Z</time>
      </trkpt>
      <trkpt lat="43.86151" lon="3.30979">
        <ele>741</ele>
        <time>2026-03-25T13:54:50.000Z</time>
      </trkpt>
      <trkpt lat="43.86099" lon="3.30984">
        <ele>740</ele>
        <time>2026-03-25T13:55:50.000Z</time>
      </trkpt>
      <trkpt lat="43.86009" lon="3.30965">
        <ele>736</ele>
        <time>2026-03-25T13:57:34.000Z</time>
      </trkpt>
      <trkpt lat="43.85988" lon="3.30957">
        <ele>735</ele>
        <time>2026-03-25T13:57:59.000Z</time>
      </trkpt>
      <trkpt lat="43.85967" lon="3.30959">
        <ele>734</ele>
        <time>2026-03-25T13:58:23.000Z</time>
      </trkpt>
      <trkpt lat="43.85967" lon="3.30959">
        <ele>734</ele>
        <time>2026-03-25T13:58:23.000Z</time>
      </trkpt>
      <trkpt lat="43.85963" lon="3.30962">
        <ele>734</ele>
        <time>2026-03-25T13:58:28.000Z</time>
      </trkpt>
      <trkpt lat="43.85953" lon="3.30978">
        <ele>734</ele>
        <time>2026-03-25T13:58:46.000Z</time>
      </trkpt>
      <trkpt lat="43.85947" lon="3.31028">
        <ele>734</ele>
        <time>2026-03-25T13:59:27.000Z</time>
      </trkpt>
      <trkpt lat="43.85947" lon="3.31028">
        <ele>734</ele>
        <time>2026-03-25T13:57:28.000Z</time>
      </trkpt>
      <trkpt lat="43.85947" lon="3.31028">
        <ele>734</ele>
        <time>2026-03-25T13:57:29.000Z</time>
      </trkpt>
      <trkpt lat="43.85948" lon="3.3104">
        <ele>733</ele>
        <time>2026-03-25T13:57:39.000Z</time>
      </trkpt>
      <trkpt lat="43.85954" lon="3.31054">
        <ele>733</ele>
        <time>2026-03-25T13:57:53.000Z</time>
      </trkpt>
      <trkpt lat="43.85967" lon="3.3106">
        <ele>734</ele>
        <time>2026-03-25T13:58:18.000Z</time>
      </trkpt>
      <trkpt lat="43.86035" lon="3.31062">
        <ele>740</ele>
        <time>2026-03-25T14:00:38.000Z</time>
      </trkpt>
      <trkpt lat="43.86035" lon="3.31062">
        <ele>740</ele>
        <time>2026-03-25T14:00:38.000Z</time>
      </trkpt>
      <trkpt lat="43.86041" lon="3.31066">
        <ele>740</ele>
        <time>2026-03-25T14:00:46.000Z</time>
      </trkpt>
      <trkpt lat="43.86053" lon="3.3108">
        <ele>740</ele>
        <time>2026-03-25T14:01:04.000Z</time>
      </trkpt>
      <trkpt lat="43.86087" lon="3.31162">
        <ele>738</ele>
        <time>2026-03-25T14:02:22.000Z</time>
      </trkpt>
      <trkpt lat="43.86107" lon="3.31217">
        <ele>737</ele>
        <time>2026-03-25T14:03:13.000Z</time>
      </trkpt>
      <trkpt lat="43.86129" lon="3.31261">
        <ele>737</ele>
        <time>2026-03-25T14:03:58.000Z</time>
      </trkpt>
      <trkpt lat="43.86136" lon="3.31269">
        <ele>737</ele>
        <time>2026-03-25T14:04:09.000Z</time>
      </trkpt>
      <trkpt lat="43.8615" lon="3.31273">
        <ele>736</ele>
        <time>2026-03-25T14:04:25.000Z</time>
      </trkpt>
      <trkpt lat="43.86182" lon="3.31293">
        <ele>735</ele>
        <time>2026-03-25T14:05:05.000Z</time>
      </trkpt>
      <trkpt lat="43.86217" lon="3.31348">
        <ele>736</ele>
        <time>2026-03-25T14:06:15.000Z</time>
      </trkpt>
      <trkpt lat="43.86223" lon="3.31368">
        <ele>736</ele>
        <time>2026-03-25T14:06:33.000Z</time>
      </trkpt>
      <trkpt lat="43.86223" lon="3.31368">
        <ele>736</ele>
        <time>2026-03-25T14:06:33.000Z</time>
      </trkpt>
      <trkpt lat="43.86223" lon="3.31368">
        <ele>736</ele>
        <time>2026-03-25T14:06:33.000Z</time>
      </trkpt>
      <trkpt lat="43.86214" lon="3.31415">
        <ele>737</ele>
        <time>2026-03-25T14:07:23.000Z</time>
      </trkpt>
      <trkpt lat="43.86213" lon="3.31457">
        <ele>739</ele>
        <time>2026-03-25T14:08:19.000Z</time>
      </trkpt>
      <trkpt lat="43.86206" lon="3.3149">
        <ele>740</ele>
        <time>2026-03-25T14:08:57.000Z</time>
      </trkpt>
      <trkpt lat="43.86239" lon="3.31518">
        <ele>741</ele>
        <time>2026-03-25T14:09:52.000Z</time>
      </trkpt>
      <trkpt lat="43.86247" lon="3.31532">
        <ele>741</ele>
        <time>2026-03-25T14:10:07.000Z</time>
      </trkpt>
      <trkpt lat="43.86249" lon="3.31566">
        <ele>742</ele>
        <time>2026-03-25T14:10:45.000Z</time>
      </trkpt>
      <trkpt lat="43.86242" lon="3.31599">
        <ele>742</ele>
        <time>2026-03-25T14:11:13.000Z</time>
      </trkpt>
      <trkpt lat="43.86238" lon="3.31645">
        <ele>743</ele>
        <time>2026-03-25T14:12:02.000Z</time>
      </trkpt>
      <trkpt lat="43.86248" lon="3.31651">
        <ele>743</ele>
        <time>2026-03-25T14:12:15.000Z</time>
      </trkpt>
      <trkpt lat="43.86248" lon="3.31655">
        <ele>743</ele>
        <time>2026-03-25T14:08:46.000Z</time>
      </trkpt>
      <trkpt lat="43.86248" lon="3.31651">
        <ele>743</ele>
        <time>2026-03-25T14:08:49.000Z</time>
      </trkpt>
      <trkpt lat="43.86257" lon="3.31655">
        <ele>743</ele>
        <time>2026-03-25T14:09:00.000Z</time>
      </trkpt>
      <trkpt lat="43.86333" lon="3.31698">
        <ele>743</ele>
        <time>2026-03-25T14:10:33.000Z</time>
      </trkpt>
      <trkpt lat="43.86376" lon="3.3176">
        <ele>745</ele>
        <time>2026-03-25T14:12:05.000Z</time>
      </trkpt>
      <trkpt lat="43.86392" lon="3.31789">
        <ele>747</ele>
        <time>2026-03-25T14:12:56.000Z</time>
      </trkpt>
      <trkpt lat="43.86394" lon="3.31794">
        <ele>747</ele>
        <time>2026-03-25T14:13:01.000Z</time>
      </trkpt>
      <trkpt lat="43.86405" lon="3.31765">
        <ele>746</ele>
        <time>2026-03-25T14:13:28.000Z</time>
      </trkpt>
      <trkpt lat="43.86432" lon="3.31708">
        <ele>744</ele>
        <time>2026-03-25T14:14:24.000Z</time>
      </trkpt>
      <trkpt lat="43.86454" lon="3.31678">
        <ele>742</ele>
        <time>2026-03-25T14:14:59.000Z</time>
      </trkpt>
      <trkpt lat="43.86452" lon="3.31644">
        <ele>741</ele>
        <time>2026-03-25T14:15:27.000Z</time>
      </trkpt>
    </trkseg>
  </trk>
</gpx>